<?xml version="1.0" encoding="UTF-8"?>
<gpx xmlns="http://www.topografix.com/GPX/1/1" xmlns:xsi="http://www.w3.org/2001/XMLSchema-instance" version="1.1" xsi:schemaLocation="http://www.topografix.com/GPX/1/1 http://www.topografix.com/GPX/1/1/gpx.xsd">
  <metadata>
    <name>Standard Distance World Championships 2024 Torremolinos</name>
  </metadata>
  <trk>
    <name>Standard Distance World Championships 2024 Torremolinos</name>
    <trkseg>
      <trkpt lat="36.638823" lon="-4.484077">
        <ele>2.254469</ele>
        <time>2024-10-19T08:30:00.000Z</time>
      </trkpt>
      <trkpt lat="36.638822" lon="-4.484077">
        <ele>2.254479</ele>
        <time>2024-10-19T08:30:00.000Z</time>
      </trkpt>
      <trkpt lat="36.639341" lon="-4.485234">
        <ele>2.393865</ele>
        <time>2024-10-19T08:30:12.000Z</time>
      </trkpt>
      <trkpt lat="36.639428" lon="-4.485451">
        <ele>2.54524</ele>
        <time>2024-10-19T08:30:14.000Z</time>
      </trkpt>
      <trkpt lat="36.63953" lon="-4.485707">
        <ele>2.733431</ele>
        <time>2024-10-19T08:30:17.000Z</time>
      </trkpt>
      <trkpt lat="36.639741" lon="-4.486176">
        <ele>3.068504</ele>
        <time>2024-10-19T08:30:22.000Z</time>
      </trkpt>
      <trkpt lat="36.639953" lon="-4.48666">
        <ele>3.421567</ele>
        <time>2024-10-19T08:30:27.000Z</time>
      </trkpt>
      <trkpt lat="36.640138" lon="-4.487125">
        <ele>3.745793</ele>
        <time>2024-10-19T08:30:32.000Z</time>
      </trkpt>
      <trkpt lat="36.64039" lon="-4.487679">
        <ele>4.068548</ele>
        <time>2024-10-19T08:30:38.000Z</time>
      </trkpt>
      <trkpt lat="36.640986" lon="-4.487326">
        <ele>4.487416</ele>
        <time>2024-10-19T08:30:45.000Z</time>
      </trkpt>
      <trkpt lat="36.642329" lon="-4.486507">
        <ele>5.181611</ele>
        <time>2024-10-19T08:31:02.000Z</time>
      </trkpt>
      <trkpt lat="36.64294" lon="-4.486117">
        <ele>5.433343</ele>
        <time>2024-10-19T08:31:10.000Z</time>
      </trkpt>
      <trkpt lat="36.643503" lon="-4.485768">
        <ele>5.91259</ele>
        <time>2024-10-19T08:31:17.000Z</time>
      </trkpt>
      <trkpt lat="36.643633" lon="-4.485699">
        <ele>6.027249</ele>
        <time>2024-10-19T08:31:19.000Z</time>
      </trkpt>
      <trkpt lat="36.643669" lon="-4.485675">
        <ele>6.075647</ele>
        <time>2024-10-19T08:31:19.000Z</time>
      </trkpt>
      <trkpt lat="36.64377" lon="-4.485687">
        <ele>6.151668</ele>
        <time>2024-10-19T08:31:20.000Z</time>
      </trkpt>
      <trkpt lat="36.643825" lon="-4.485718">
        <ele>6.20978</ele>
        <time>2024-10-19T08:31:21.000Z</time>
      </trkpt>
      <trkpt lat="36.643875" lon="-4.485782">
        <ele>6.262958</ele>
        <time>2024-10-19T08:31:22.000Z</time>
      </trkpt>
      <trkpt lat="36.643876" lon="-4.485782">
        <ele>6.269519</ele>
        <time>2024-10-19T08:31:22.000Z</time>
      </trkpt>
      <trkpt lat="36.643906" lon="-4.485923">
        <ele>6.376194</ele>
        <time>2024-10-19T08:31:23.000Z</time>
      </trkpt>
      <trkpt lat="36.643863" lon="-4.486028">
        <ele>6.453964</ele>
        <time>2024-10-19T08:31:24.000Z</time>
      </trkpt>
      <trkpt lat="36.643854" lon="-4.486055">
        <ele>6.469291</ele>
        <time>2024-10-19T08:31:24.000Z</time>
      </trkpt>
      <trkpt lat="36.643845" lon="-4.486139">
        <ele>6.532919</ele>
        <time>2024-10-19T08:31:25.000Z</time>
      </trkpt>
      <trkpt lat="36.64369" lon="-4.486427">
        <ele>6.779063</ele>
        <time>2024-10-19T08:31:28.000Z</time>
      </trkpt>
      <trkpt lat="36.643658" lon="-4.486463">
        <ele>6.815733</ele>
        <time>2024-10-19T08:31:28.000Z</time>
      </trkpt>
      <trkpt lat="36.643568" lon="-4.48666">
        <ele>6.97072</ele>
        <time>2024-10-19T08:31:30.000Z</time>
      </trkpt>
      <trkpt lat="36.643403" lon="-4.487144">
        <ele>7.575006</ele>
        <time>2024-10-19T08:31:35.000Z</time>
      </trkpt>
      <trkpt lat="36.643256" lon="-4.487671">
        <ele>8.260749</ele>
        <time>2024-10-19T08:31:40.000Z</time>
      </trkpt>
      <trkpt lat="36.643181" lon="-4.487977">
        <ele>8.663518</ele>
        <time>2024-10-19T08:31:43.000Z</time>
      </trkpt>
      <trkpt lat="36.643056" lon="-4.488563">
        <ele>9.414701</ele>
        <time>2024-10-19T08:31:48.000Z</time>
      </trkpt>
      <trkpt lat="36.643029" lon="-4.488724">
        <ele>9.624115</ele>
        <time>2024-10-19T08:31:49.000Z</time>
      </trkpt>
      <trkpt lat="36.642742" lon="-4.490151">
        <ele>11.578561</ele>
        <time>2024-10-19T08:32:02.000Z</time>
      </trkpt>
      <trkpt lat="36.642573" lon="-4.490802">
        <ele>12.508936</ele>
        <time>2024-10-19T08:32:08.000Z</time>
      </trkpt>
      <trkpt lat="36.642515" lon="-4.490961">
        <ele>12.758595</ele>
        <time>2024-10-19T08:32:10.000Z</time>
      </trkpt>
      <trkpt lat="36.642414" lon="-4.491245">
        <ele>13.073311</ele>
        <time>2024-10-19T08:32:13.000Z</time>
      </trkpt>
      <trkpt lat="36.642199" lon="-4.491636">
        <ele>13.515553</ele>
        <time>2024-10-19T08:32:17.000Z</time>
      </trkpt>
      <trkpt lat="36.642248" lon="-4.491741">
        <ele>13.622391</ele>
        <time>2024-10-19T08:32:18.000Z</time>
      </trkpt>
      <trkpt lat="36.642238" lon="-4.491853">
        <ele>13.728819</ele>
        <time>2024-10-19T08:32:19.000Z</time>
      </trkpt>
      <trkpt lat="36.64217" lon="-4.491931">
        <ele>13.835498</ele>
        <time>2024-10-19T08:32:20.000Z</time>
      </trkpt>
      <trkpt lat="36.642125" lon="-4.491955">
        <ele>13.889709</ele>
        <time>2024-10-19T08:32:21.000Z</time>
      </trkpt>
      <trkpt lat="36.642143" lon="-4.492111">
        <ele>14.043514</ele>
        <time>2024-10-19T08:32:22.000Z</time>
      </trkpt>
      <trkpt lat="36.642185" lon="-4.49216">
        <ele>14.106142</ele>
        <time>2024-10-19T08:32:23.000Z</time>
      </trkpt>
      <trkpt lat="36.642333" lon="-4.492319">
        <ele>14.347358</ele>
        <time>2024-10-19T08:32:25.000Z</time>
      </trkpt>
      <trkpt lat="36.642395" lon="-4.492362">
        <ele>14.414264</ele>
        <time>2024-10-19T08:32:26.000Z</time>
      </trkpt>
      <trkpt lat="36.6426" lon="-4.492417">
        <ele>14.664659</ele>
        <time>2024-10-19T08:32:28.000Z</time>
      </trkpt>
      <trkpt lat="36.642747" lon="-4.492339">
        <ele>14.855221</ele>
        <time>2024-10-19T08:32:30.000Z</time>
      </trkpt>
      <trkpt lat="36.642834" lon="-4.492253">
        <ele>14.970102</ele>
        <time>2024-10-19T08:32:31.000Z</time>
      </trkpt>
      <trkpt lat="36.642838" lon="-4.492242">
        <ele>14.988762</ele>
        <time>2024-10-19T08:32:31.000Z</time>
      </trkpt>
      <trkpt lat="36.642849" lon="-4.492233">
        <ele>14.997238</ele>
        <time>2024-10-19T08:32:31.000Z</time>
      </trkpt>
      <trkpt lat="36.642966" lon="-4.492107">
        <ele>15.192158</ele>
        <time>2024-10-19T08:32:33.000Z</time>
      </trkpt>
      <trkpt lat="36.643067" lon="-4.492084">
        <ele>15.317599</ele>
        <time>2024-10-19T08:32:34.000Z</time>
      </trkpt>
      <trkpt lat="36.643478" lon="-4.491547">
        <ele>16.040337</ele>
        <time>2024-10-19T08:32:41.000Z</time>
      </trkpt>
      <trkpt lat="36.643897" lon="-4.491026">
        <ele>16.755463</ele>
        <time>2024-10-19T08:32:48.000Z</time>
      </trkpt>
      <trkpt lat="36.644268" lon="-4.49056">
        <ele>17.28422</ele>
        <time>2024-10-19T08:32:54.000Z</time>
      </trkpt>
      <trkpt lat="36.644601" lon="-4.490244">
        <ele>17.530401</ele>
        <time>2024-10-19T08:32:59.000Z</time>
      </trkpt>
      <trkpt lat="36.644897" lon="-4.490055">
        <ele>17.72036</ele>
        <time>2024-10-19T08:33:03.000Z</time>
      </trkpt>
      <trkpt lat="36.645161" lon="-4.489904">
        <ele>17.89484</ele>
        <time>2024-10-19T08:33:06.000Z</time>
      </trkpt>
      <trkpt lat="36.645288" lon="-4.489844">
        <ele>17.973594</ele>
        <time>2024-10-19T08:33:08.000Z</time>
      </trkpt>
      <trkpt lat="36.645282" lon="-4.489837">
        <ele>17.973594</ele>
        <time>2024-10-19T08:33:08.000Z</time>
      </trkpt>
      <trkpt lat="36.645285" lon="-4.489837">
        <ele>17.973604</ele>
        <time>2024-10-19T08:33:08.000Z</time>
      </trkpt>
      <trkpt lat="36.645332" lon="-4.489961">
        <ele>18.02845</ele>
        <time>2024-10-19T08:33:09.000Z</time>
      </trkpt>
      <trkpt lat="36.645211" lon="-4.489997">
        <ele>18.094017</ele>
        <time>2024-10-19T08:33:10.000Z</time>
      </trkpt>
      <trkpt lat="36.644919" lon="-4.490155">
        <ele>18.128425</ele>
        <time>2024-10-19T08:33:14.000Z</time>
      </trkpt>
      <trkpt lat="36.644529" lon="-4.490479">
        <ele>17.690693</ele>
        <time>2024-10-19T08:33:19.000Z</time>
      </trkpt>
      <trkpt lat="36.643946" lon="-4.491126">
        <ele>16.974393</ele>
        <time>2024-10-19T08:33:28.000Z</time>
      </trkpt>
      <trkpt lat="36.643091" lon="-4.492269">
        <ele>16.733499</ele>
        <time>2024-10-19T08:33:42.000Z</time>
      </trkpt>
      <trkpt lat="36.642648" lon="-4.492871">
        <ele>16.877362</ele>
        <time>2024-10-19T08:33:49.000Z</time>
      </trkpt>
      <trkpt lat="36.642363" lon="-4.493246">
        <ele>17.114193</ele>
        <time>2024-10-19T08:33:54.000Z</time>
      </trkpt>
      <trkpt lat="36.642366" lon="-4.49326">
        <ele>17.13057</ele>
        <time>2024-10-19T08:33:54.000Z</time>
      </trkpt>
      <trkpt lat="36.642364" lon="-4.493264">
        <ele>17.132318</ele>
        <time>2024-10-19T08:33:54.000Z</time>
      </trkpt>
      <trkpt lat="36.641716" lon="-4.494187">
        <ele>19.283048</ele>
        <time>2024-10-19T08:34:05.000Z</time>
      </trkpt>
      <trkpt lat="36.641407" lon="-4.494621">
        <ele>20.294456</ele>
        <time>2024-10-19T08:34:10.000Z</time>
      </trkpt>
      <trkpt lat="36.641071" lon="-4.495072">
        <ele>21.555109</ele>
        <time>2024-10-19T08:34:15.000Z</time>
      </trkpt>
      <trkpt lat="36.641027" lon="-4.495112">
        <ele>21.681059</ele>
        <time>2024-10-19T08:34:16.000Z</time>
      </trkpt>
      <trkpt lat="36.640814" lon="-4.495393">
        <ele>22.596692</ele>
        <time>2024-10-19T08:34:19.000Z</time>
      </trkpt>
      <trkpt lat="36.640607" lon="-4.495615">
        <ele>23.385501</ele>
        <time>2024-10-19T08:34:22.000Z</time>
      </trkpt>
      <trkpt lat="36.639938" lon="-4.496182">
        <ele>25.722144</ele>
        <time>2024-10-19T08:34:31.000Z</time>
      </trkpt>
      <trkpt lat="36.639859" lon="-4.496225">
        <ele>25.969354</ele>
        <time>2024-10-19T08:34:32.000Z</time>
      </trkpt>
      <trkpt lat="36.639849" lon="-4.496255">
        <ele>26.0468</ele>
        <time>2024-10-19T08:34:32.000Z</time>
      </trkpt>
      <trkpt lat="36.639851" lon="-4.496258">
        <ele>26.05305</ele>
        <time>2024-10-19T08:34:32.000Z</time>
      </trkpt>
      <trkpt lat="36.639639" lon="-4.496384">
        <ele>26.558698</ele>
        <time>2024-10-19T08:34:35.000Z</time>
      </trkpt>
      <trkpt lat="36.639042" lon="-4.496747">
        <ele>28.03904</ele>
        <time>2024-10-19T08:34:42.000Z</time>
      </trkpt>
      <trkpt lat="36.638079" lon="-4.49722">
        <ele>30.304394</ele>
        <time>2024-10-19T08:34:54.000Z</time>
      </trkpt>
      <trkpt lat="36.636731" lon="-4.498127">
        <ele>33.04627</ele>
        <time>2024-10-19T08:35:11.000Z</time>
      </trkpt>
      <trkpt lat="36.636432" lon="-4.498365">
        <ele>33.659716</ele>
        <time>2024-10-19T08:35:15.000Z</time>
      </trkpt>
      <trkpt lat="36.636423" lon="-4.498365">
        <ele>33.669365</ele>
        <time>2024-10-19T08:35:15.000Z</time>
      </trkpt>
      <trkpt lat="36.6364" lon="-4.498376">
        <ele>33.697601</ele>
        <time>2024-10-19T08:35:15.000Z</time>
      </trkpt>
      <trkpt lat="36.636367" lon="-4.498405">
        <ele>33.769928</ele>
        <time>2024-10-19T08:35:15.000Z</time>
      </trkpt>
      <trkpt lat="36.635731" lon="-4.49879">
        <ele>34.905193</ele>
        <time>2024-10-19T08:35:23.000Z</time>
      </trkpt>
      <trkpt lat="36.635145" lon="-4.499071">
        <ele>35.945213</ele>
        <time>2024-10-19T08:35:30.000Z</time>
      </trkpt>
      <trkpt lat="36.634653" lon="-4.499258">
        <ele>36.625903</ele>
        <time>2024-10-19T08:35:36.000Z</time>
      </trkpt>
      <trkpt lat="36.634072" lon="-4.499509">
        <ele>37.369173</ele>
        <time>2024-10-19T08:35:43.000Z</time>
      </trkpt>
      <trkpt lat="36.63361" lon="-4.499744">
        <ele>37.947484</ele>
        <time>2024-10-19T08:35:49.000Z</time>
      </trkpt>
      <trkpt lat="36.633304" lon="-4.499974">
        <ele>38.391555</ele>
        <time>2024-10-19T08:35:53.000Z</time>
      </trkpt>
      <trkpt lat="36.633152" lon="-4.500121">
        <ele>38.781051</ele>
        <time>2024-10-19T08:35:55.000Z</time>
      </trkpt>
      <trkpt lat="36.633132" lon="-4.500242">
        <ele>38.978412</ele>
        <time>2024-10-19T08:35:56.000Z</time>
      </trkpt>
      <trkpt lat="36.633069" lon="-4.500275">
        <ele>39.125602</ele>
        <time>2024-10-19T08:35:57.000Z</time>
      </trkpt>
      <trkpt lat="36.63301" lon="-4.500266">
        <ele>39.231449</ele>
        <time>2024-10-19T08:35:58.000Z</time>
      </trkpt>
      <trkpt lat="36.631769" lon="-4.501329">
        <ele>42.545136</ele>
        <time>2024-10-19T08:36:15.000Z</time>
      </trkpt>
      <trkpt lat="36.631489" lon="-4.501582">
        <ele>43.9383</ele>
        <time>2024-10-19T08:36:19.000Z</time>
      </trkpt>
      <trkpt lat="36.630758" lon="-4.502273">
        <ele>47.550852</ele>
        <time>2024-10-19T08:36:29.000Z</time>
      </trkpt>
      <trkpt lat="36.630391" lon="-4.502678">
        <ele>49.404008</ele>
        <time>2024-10-19T08:36:34.000Z</time>
      </trkpt>
      <trkpt lat="36.630053" lon="-4.503156">
        <ele>50.730788</ele>
        <time>2024-10-19T08:36:40.000Z</time>
      </trkpt>
      <trkpt lat="36.630029" lon="-4.503181">
        <ele>50.780888</ele>
        <time>2024-10-19T08:36:40.000Z</time>
      </trkpt>
      <trkpt lat="36.629609" lon="-4.503775">
        <ele>52.443997</ele>
        <time>2024-10-19T08:36:47.000Z</time>
      </trkpt>
      <trkpt lat="36.629465" lon="-4.504023">
        <ele>53.062424</ele>
        <time>2024-10-19T08:36:50.000Z</time>
      </trkpt>
      <trkpt lat="36.629488" lon="-4.504119">
        <ele>53.269693</ele>
        <time>2024-10-19T08:36:51.000Z</time>
      </trkpt>
      <trkpt lat="36.629481" lon="-4.504219">
        <ele>53.478801</ele>
        <time>2024-10-19T08:36:52.000Z</time>
      </trkpt>
      <trkpt lat="36.629461" lon="-4.504312">
        <ele>53.688091</ele>
        <time>2024-10-19T08:36:53.000Z</time>
      </trkpt>
      <trkpt lat="36.62939" lon="-4.504386">
        <ele>53.856694</ele>
        <time>2024-10-19T08:36:54.000Z</time>
      </trkpt>
      <trkpt lat="36.629324" lon="-4.504434">
        <ele>53.917612</ele>
        <time>2024-10-19T08:36:55.000Z</time>
      </trkpt>
      <trkpt lat="36.629246" lon="-4.504451">
        <ele>53.979011</ele>
        <time>2024-10-19T08:36:56.000Z</time>
      </trkpt>
      <trkpt lat="36.629176" lon="-4.504426">
        <ele>54.040188</ele>
        <time>2024-10-19T08:36:57.000Z</time>
      </trkpt>
      <trkpt lat="36.62906" lon="-4.504503">
        <ele>54.129731</ele>
        <time>2024-10-19T08:36:58.000Z</time>
      </trkpt>
      <trkpt lat="36.628732" lon="-4.504814">
        <ele>54.451525</ele>
        <time>2024-10-19T08:37:03.000Z</time>
      </trkpt>
      <trkpt lat="36.628354" lon="-4.505158">
        <ele>54.799157</ele>
        <time>2024-10-19T08:37:08.000Z</time>
      </trkpt>
      <trkpt lat="36.626219" lon="-4.506945">
        <ele>57.549762</ele>
        <time>2024-10-19T08:37:37.000Z</time>
      </trkpt>
      <trkpt lat="36.625527" lon="-4.507426">
        <ele>59.466298</ele>
        <time>2024-10-19T08:37:46.000Z</time>
      </trkpt>
      <trkpt lat="36.624013" lon="-4.508295">
        <ele>63.672867</ele>
        <time>2024-10-19T08:38:05.000Z</time>
      </trkpt>
      <trkpt lat="36.623095" lon="-4.508614">
        <ele>66.135966</ele>
        <time>2024-10-19T08:38:16.000Z</time>
      </trkpt>
      <trkpt lat="36.621899" lon="-4.508858">
        <ele>67.428305</ele>
        <time>2024-10-19T08:38:29.000Z</time>
      </trkpt>
      <trkpt lat="36.621457" lon="-4.508872">
        <ele>67.904092</ele>
        <time>2024-10-19T08:38:34.000Z</time>
      </trkpt>
      <trkpt lat="36.621197" lon="-4.508878">
        <ele>68.046909</ele>
        <time>2024-10-19T08:38:37.000Z</time>
      </trkpt>
      <trkpt lat="36.621025" lon="-4.508883">
        <ele>68.095627</ele>
        <time>2024-10-19T08:38:39.000Z</time>
      </trkpt>
      <trkpt lat="36.620849" lon="-4.508915">
        <ele>68.146066</ele>
        <time>2024-10-19T08:38:41.000Z</time>
      </trkpt>
      <trkpt lat="36.620834" lon="-4.508901">
        <ele>68.14777</ele>
        <time>2024-10-19T08:38:41.000Z</time>
      </trkpt>
      <trkpt lat="36.620835" lon="-4.508903">
        <ele>68.149474</ele>
        <time>2024-10-19T08:38:41.000Z</time>
      </trkpt>
      <trkpt lat="36.620636" lon="-4.50893">
        <ele>68.206131</ele>
        <time>2024-10-19T08:38:43.000Z</time>
      </trkpt>
      <trkpt lat="36.620449" lon="-4.508914">
        <ele>68.258991</ele>
        <time>2024-10-19T08:38:45.000Z</time>
      </trkpt>
      <trkpt lat="36.620415" lon="-4.508925">
        <ele>68.268044</ele>
        <time>2024-10-19T08:38:45.000Z</time>
      </trkpt>
      <trkpt lat="36.617988" lon="-4.509043">
        <ele>68.632029</ele>
        <time>2024-10-19T08:39:12.000Z</time>
      </trkpt>
      <trkpt lat="36.617583" lon="-4.509065">
        <ele>68.476483</ele>
        <time>2024-10-19T08:39:17.000Z</time>
      </trkpt>
      <trkpt lat="36.617117" lon="-4.509167">
        <ele>68.041056</ele>
        <time>2024-10-19T08:39:22.000Z</time>
      </trkpt>
      <trkpt lat="36.616777" lon="-4.509255">
        <ele>67.737245</ele>
        <time>2024-10-19T08:39:26.000Z</time>
      </trkpt>
      <trkpt lat="36.616329" lon="-4.509439">
        <ele>67.295143</ele>
        <time>2024-10-19T08:39:31.000Z</time>
      </trkpt>
      <trkpt lat="36.615849" lon="-4.509716">
        <ele>66.778855</ele>
        <time>2024-10-19T08:39:37.000Z</time>
      </trkpt>
      <trkpt lat="36.615711" lon="-4.509874">
        <ele>66.569078</ele>
        <time>2024-10-19T08:39:39.000Z</time>
      </trkpt>
      <trkpt lat="36.615693" lon="-4.509894">
        <ele>66.554013</ele>
        <time>2024-10-19T08:39:39.000Z</time>
      </trkpt>
      <trkpt lat="36.615673" lon="-4.509971">
        <ele>66.483089</ele>
        <time>2024-10-19T08:39:40.000Z</time>
      </trkpt>
      <trkpt lat="36.615603" lon="-4.510006">
        <ele>66.405636</ele>
        <time>2024-10-19T08:39:41.000Z</time>
      </trkpt>
      <trkpt lat="36.615545" lon="-4.510002">
        <ele>66.335659</ele>
        <time>2024-10-19T08:39:42.000Z</time>
      </trkpt>
      <trkpt lat="36.615362" lon="-4.510024">
        <ele>66.147029</ele>
        <time>2024-10-19T08:39:44.000Z</time>
      </trkpt>
      <trkpt lat="36.61527" lon="-4.510075">
        <ele>66.025034</ele>
        <time>2024-10-19T08:39:45.000Z</time>
      </trkpt>
      <trkpt lat="36.613385" lon="-4.511251">
        <ele>64.012119</ele>
        <time>2024-10-19T08:40:08.000Z</time>
      </trkpt>
      <trkpt lat="36.612962" lon="-4.511517">
        <ele>63.607905</ele>
        <time>2024-10-19T08:40:13.000Z</time>
      </trkpt>
      <trkpt lat="36.612359" lon="-4.511902">
        <ele>63.122904</ele>
        <time>2024-10-19T08:40:21.000Z</time>
      </trkpt>
      <trkpt lat="36.610748" lon="-4.51294">
        <ele>61.479381</ele>
        <time>2024-10-19T08:40:41.000Z</time>
      </trkpt>
      <trkpt lat="36.610282" lon="-4.513215">
        <ele>60.77222</ele>
        <time>2024-10-19T08:40:47.000Z</time>
      </trkpt>
      <trkpt lat="36.609902" lon="-4.513565">
        <ele>60.130908</ele>
        <time>2024-10-19T08:40:52.000Z</time>
      </trkpt>
      <trkpt lat="36.609621" lon="-4.513853">
        <ele>59.334575</ele>
        <time>2024-10-19T08:40:56.000Z</time>
      </trkpt>
      <trkpt lat="36.609547" lon="-4.513873">
        <ele>59.051461</ele>
        <time>2024-10-19T08:40:57.000Z</time>
      </trkpt>
      <trkpt lat="36.609525" lon="-4.513884">
        <ele>58.994287</ele>
        <time>2024-10-19T08:40:57.000Z</time>
      </trkpt>
      <trkpt lat="36.609504" lon="-4.513939">
        <ele>58.794465</ele>
        <time>2024-10-19T08:40:58.000Z</time>
      </trkpt>
      <trkpt lat="36.609373" lon="-4.513987">
        <ele>58.320564</ele>
        <time>2024-10-19T08:41:00.000Z</time>
      </trkpt>
      <trkpt lat="36.609315" lon="-4.513972">
        <ele>58.079119</ele>
        <time>2024-10-19T08:41:01.000Z</time>
      </trkpt>
      <trkpt lat="36.609202" lon="-4.513889">
        <ele>57.604131</ele>
        <time>2024-10-19T08:41:02.000Z</time>
      </trkpt>
      <trkpt lat="36.609178" lon="-4.513866">
        <ele>57.460346</ele>
        <time>2024-10-19T08:41:02.000Z</time>
      </trkpt>
      <trkpt lat="36.608745" lon="-4.513961">
        <ele>55.888531</ele>
        <time>2024-10-19T08:41:07.000Z</time>
      </trkpt>
      <trkpt lat="36.608381" lon="-4.514003">
        <ele>54.525951</ele>
        <time>2024-10-19T08:41:11.000Z</time>
      </trkpt>
      <trkpt lat="36.607198" lon="-4.514003">
        <ele>48.936324</ele>
        <time>2024-10-19T08:41:24.000Z</time>
      </trkpt>
      <trkpt lat="36.606972" lon="-4.51401">
        <ele>47.670867</ele>
        <time>2024-10-19T08:41:27.000Z</time>
      </trkpt>
      <trkpt lat="36.606884" lon="-4.514085">
        <ele>47.111609</ele>
        <time>2024-10-19T08:41:28.000Z</time>
      </trkpt>
      <trkpt lat="36.60676" lon="-4.514038">
        <ele>46.523165</ele>
        <time>2024-10-19T08:41:29.000Z</time>
      </trkpt>
      <trkpt lat="36.606617" lon="-4.514026">
        <ele>45.688273</ele>
        <time>2024-10-19T08:41:31.000Z</time>
      </trkpt>
      <trkpt lat="36.606312" lon="-4.514042">
        <ele>44.113094</ele>
        <time>2024-10-19T08:41:34.000Z</time>
      </trkpt>
      <trkpt lat="36.605073" lon="-4.514368">
        <ele>37.756566</ele>
        <time>2024-10-19T08:41:48.000Z</time>
      </trkpt>
      <trkpt lat="36.604746" lon="-4.514419">
        <ele>36.098425</ele>
        <time>2024-10-19T08:41:52.000Z</time>
      </trkpt>
      <trkpt lat="36.604485" lon="-4.514409">
        <ele>34.809658</ele>
        <time>2024-10-19T08:41:55.000Z</time>
      </trkpt>
      <trkpt lat="36.604305" lon="-4.514389">
        <ele>34.798041</ele>
        <time>2024-10-19T08:41:57.000Z</time>
      </trkpt>
      <trkpt lat="36.603882" lon="-4.514249">
        <ele>34.768816</ele>
        <time>2024-10-19T08:42:02.000Z</time>
      </trkpt>
      <trkpt lat="36.603622" lon="-4.514098">
        <ele>34.750696</ele>
        <time>2024-10-19T08:42:05.000Z</time>
      </trkpt>
      <trkpt lat="36.603628" lon="-4.514106">
        <ele>34.750332</ele>
        <time>2024-10-19T08:42:05.000Z</time>
      </trkpt>
      <trkpt lat="36.603617" lon="-4.514099">
        <ele>34.750105</ele>
        <time>2024-10-19T08:42:05.000Z</time>
      </trkpt>
      <trkpt lat="36.60362" lon="-4.514106">
        <ele>34.750102</ele>
        <time>2024-10-19T08:42:05.000Z</time>
      </trkpt>
      <trkpt lat="36.60362" lon="-4.514103">
        <ele>34.750102</ele>
        <time>2024-10-19T08:42:05.000Z</time>
      </trkpt>
      <trkpt lat="36.603644" lon="-4.514009">
        <ele>34.744926</ele>
        <time>2024-10-19T08:42:06.000Z</time>
      </trkpt>
      <trkpt lat="36.603688" lon="-4.514034">
        <ele>34.742323</ele>
        <time>2024-10-19T08:42:07.000Z</time>
      </trkpt>
      <trkpt lat="36.604171" lon="-4.514261">
        <ele>34.707797</ele>
        <time>2024-10-19T08:42:13.000Z</time>
      </trkpt>
      <trkpt lat="36.604473" lon="-4.514304">
        <ele>34.955674</ele>
        <time>2024-10-19T08:42:16.000Z</time>
      </trkpt>
      <trkpt lat="36.604748" lon="-4.514318">
        <ele>36.289429</ele>
        <time>2024-10-19T08:42:19.000Z</time>
      </trkpt>
      <trkpt lat="36.605064" lon="-4.514269">
        <ele>37.826261</ele>
        <time>2024-10-19T08:42:23.000Z</time>
      </trkpt>
      <trkpt lat="36.606754" lon="-4.51383">
        <ele>46.472867</ele>
        <time>2024-10-19T08:42:42.000Z</time>
      </trkpt>
      <trkpt lat="36.606812" lon="-4.513777">
        <ele>46.895916</ele>
        <time>2024-10-19T08:42:43.000Z</time>
      </trkpt>
      <trkpt lat="36.606894" lon="-4.513784">
        <ele>47.296584</ele>
        <time>2024-10-19T08:42:44.000Z</time>
      </trkpt>
      <trkpt lat="36.606956" lon="-4.513827">
        <ele>47.59688</ele>
        <time>2024-10-19T08:42:45.000Z</time>
      </trkpt>
      <trkpt lat="36.60698" lon="-4.513873">
        <ele>47.856025</ele>
        <time>2024-10-19T08:42:45.000Z</time>
      </trkpt>
      <trkpt lat="36.608365" lon="-4.513884">
        <ele>54.310355</ele>
        <time>2024-10-19T08:43:00.000Z</time>
      </trkpt>
      <trkpt lat="36.608882" lon="-4.513775">
        <ele>56.185373</ele>
        <time>2024-10-19T08:43:06.000Z</time>
      </trkpt>
      <trkpt lat="36.609015" lon="-4.513711">
        <ele>56.631293</ele>
        <time>2024-10-19T08:43:08.000Z</time>
      </trkpt>
      <trkpt lat="36.609175" lon="-4.513566">
        <ele>57.328438</ele>
        <time>2024-10-19T08:43:10.000Z</time>
      </trkpt>
      <trkpt lat="36.609165" lon="-4.513552">
        <ele>57.377751</ele>
        <time>2024-10-19T08:43:10.000Z</time>
      </trkpt>
      <trkpt lat="36.609265" lon="-4.513457">
        <ele>57.795622</ele>
        <time>2024-10-19T08:43:11.000Z</time>
      </trkpt>
      <trkpt lat="36.60937" lon="-4.513434">
        <ele>58.213948</ele>
        <time>2024-10-19T08:43:12.000Z</time>
      </trkpt>
      <trkpt lat="36.60942" lon="-4.513453">
        <ele>58.379762</ele>
        <time>2024-10-19T08:43:13.000Z</time>
      </trkpt>
      <trkpt lat="36.60979" lon="-4.513363">
        <ele>59.404925</ele>
        <time>2024-10-19T08:43:17.000Z</time>
      </trkpt>
      <trkpt lat="36.610212" lon="-4.51313">
        <ele>60.131333</ele>
        <time>2024-10-19T08:43:22.000Z</time>
      </trkpt>
      <trkpt lat="36.612128" lon="-4.51195">
        <ele>62.752941</ele>
        <time>2024-10-19T08:43:46.000Z</time>
      </trkpt>
      <trkpt lat="36.61234" lon="-4.511812">
        <ele>62.939825</ele>
        <time>2024-10-19T08:43:49.000Z</time>
      </trkpt>
      <trkpt lat="36.613505" lon="-4.511073">
        <ele>63.955853</ele>
        <time>2024-10-19T08:44:04.000Z</time>
      </trkpt>
      <trkpt lat="36.615233" lon="-4.509994">
        <ele>65.869791</ele>
        <time>2024-10-19T08:44:25.000Z</time>
      </trkpt>
      <trkpt lat="36.61547" lon="-4.509781">
        <ele>66.230396</ele>
        <time>2024-10-19T08:44:28.000Z</time>
      </trkpt>
      <trkpt lat="36.615484" lon="-4.509759">
        <ele>66.262281</ele>
        <time>2024-10-19T08:44:28.000Z</time>
      </trkpt>
      <trkpt lat="36.615575" lon="-4.509695">
        <ele>66.377864</ele>
        <time>2024-10-19T08:44:29.000Z</time>
      </trkpt>
      <trkpt lat="36.615638" lon="-4.509716">
        <ele>66.457859</ele>
        <time>2024-10-19T08:44:30.000Z</time>
      </trkpt>
      <trkpt lat="36.615635" lon="-4.509719">
        <ele>66.467837</ele>
        <time>2024-10-19T08:44:30.000Z</time>
      </trkpt>
      <trkpt lat="36.615901" lon="-4.50958">
        <ele>66.816645</ele>
        <time>2024-10-19T08:44:33.000Z</time>
      </trkpt>
      <trkpt lat="36.616517" lon="-4.50924">
        <ele>67.401771</ele>
        <time>2024-10-19T08:44:40.000Z</time>
      </trkpt>
      <trkpt lat="36.617364" lon="-4.508999">
        <ele>68.011219</ele>
        <time>2024-10-19T08:44:50.000Z</time>
      </trkpt>
      <trkpt lat="36.618287" lon="-4.508904">
        <ele>68.198346</ele>
        <time>2024-10-19T08:45:00.000Z</time>
      </trkpt>
      <trkpt lat="36.619707" lon="-4.508857">
        <ele>67.837083</ele>
        <time>2024-10-19T08:45:16.000Z</time>
      </trkpt>
      <trkpt lat="36.620413" lon="-4.508822">
        <ele>67.825787</ele>
        <time>2024-10-19T08:45:24.000Z</time>
      </trkpt>
      <trkpt lat="36.620623" lon="-4.508818">
        <ele>67.822281</ele>
        <time>2024-10-19T08:45:26.000Z</time>
      </trkpt>
      <trkpt lat="36.621012" lon="-4.508803">
        <ele>67.815895</ele>
        <time>2024-10-19T08:45:30.000Z</time>
      </trkpt>
      <trkpt lat="36.621183" lon="-4.508795">
        <ele>67.813068</ele>
        <time>2024-10-19T08:45:32.000Z</time>
      </trkpt>
      <trkpt lat="36.621903" lon="-4.508755">
        <ele>67.327681</ele>
        <time>2024-10-19T08:45:40.000Z</time>
      </trkpt>
      <trkpt lat="36.622602" lon="-4.508648">
        <ele>66.641278</ele>
        <time>2024-10-19T08:45:48.000Z</time>
      </trkpt>
      <trkpt lat="36.623255" lon="-4.508476">
        <ele>65.844128</ele>
        <time>2024-10-19T08:45:55.000Z</time>
      </trkpt>
      <trkpt lat="36.623444" lon="-4.508406">
        <ele>65.337788</ele>
        <time>2024-10-19T08:45:57.000Z</time>
      </trkpt>
      <trkpt lat="36.623998" lon="-4.508206">
        <ele>63.697132</ele>
        <time>2024-10-19T08:46:03.000Z</time>
      </trkpt>
      <trkpt lat="36.625468" lon="-4.507368">
        <ele>59.446351</ele>
        <time>2024-10-19T08:46:21.000Z</time>
      </trkpt>
      <trkpt lat="36.626175" lon="-4.506868">
        <ele>57.564809</ele>
        <time>2024-10-19T08:46:30.000Z</time>
      </trkpt>
      <trkpt lat="36.628204" lon="-4.505129">
        <ele>54.711732</ele>
        <time>2024-10-19T08:46:57.000Z</time>
      </trkpt>
      <trkpt lat="36.628273" lon="-4.505087">
        <ele>54.641967</ele>
        <time>2024-10-19T08:46:58.000Z</time>
      </trkpt>
      <trkpt lat="36.62863" lon="-4.504741">
        <ele>54.25668</ele>
        <time>2024-10-19T08:47:03.000Z</time>
      </trkpt>
      <trkpt lat="36.628913" lon="-4.504487">
        <ele>53.955812</ele>
        <time>2024-10-19T08:47:07.000Z</time>
      </trkpt>
      <trkpt lat="36.628978" lon="-4.504374">
        <ele>53.851387</ele>
        <time>2024-10-19T08:47:08.000Z</time>
      </trkpt>
      <trkpt lat="36.629021" lon="-4.504261">
        <ele>53.767755</ele>
        <time>2024-10-19T08:47:09.000Z</time>
      </trkpt>
      <trkpt lat="36.629014" lon="-4.504142">
        <ele>53.677534</ele>
        <time>2024-10-19T08:47:10.000Z</time>
      </trkpt>
      <trkpt lat="36.629019" lon="-4.504049">
        <ele>53.616296</ele>
        <time>2024-10-19T08:47:11.000Z</time>
      </trkpt>
      <trkpt lat="36.629105" lon="-4.503916">
        <ele>53.496203</ele>
        <time>2024-10-19T08:47:13.000Z</time>
      </trkpt>
      <trkpt lat="36.62918" lon="-4.503862">
        <ele>53.36573</ele>
        <time>2024-10-19T08:47:14.000Z</time>
      </trkpt>
      <trkpt lat="36.629324" lon="-4.503873">
        <ele>52.910024</ele>
        <time>2024-10-19T08:47:16.000Z</time>
      </trkpt>
      <trkpt lat="36.629542" lon="-4.503703">
        <ele>52.193193</ele>
        <time>2024-10-19T08:47:19.000Z</time>
      </trkpt>
      <trkpt lat="36.629934" lon="-4.503121">
        <ele>50.443452</ele>
        <time>2024-10-19T08:47:26.000Z</time>
      </trkpt>
      <trkpt lat="36.630346" lon="-4.502583">
        <ele>48.710699</ele>
        <time>2024-10-19T08:47:33.000Z</time>
      </trkpt>
      <trkpt lat="36.630691" lon="-4.502208">
        <ele>47.06426</ele>
        <time>2024-10-19T08:47:38.000Z</time>
      </trkpt>
      <trkpt lat="36.631442" lon="-4.50151">
        <ele>43.453425</ele>
        <time>2024-10-19T08:47:48.000Z</time>
      </trkpt>
      <trkpt lat="36.631724" lon="-4.501251">
        <ele>42.093087</ele>
        <time>2024-10-19T08:47:52.000Z</time>
      </trkpt>
      <trkpt lat="36.632782" lon="-4.500287">
        <ele>38.434581</ele>
        <time>2024-10-19T08:48:07.000Z</time>
      </trkpt>
      <trkpt lat="36.632871" lon="-4.500161">
        <ele>38.10182</ele>
        <time>2024-10-19T08:48:08.000Z</time>
      </trkpt>
      <trkpt lat="36.632937" lon="-4.500127">
        <ele>37.919322</ele>
        <time>2024-10-19T08:48:09.000Z</time>
      </trkpt>
      <trkpt lat="36.632991" lon="-4.500038">
        <ele>37.695263</ele>
        <time>2024-10-19T08:48:10.000Z</time>
      </trkpt>
      <trkpt lat="36.633014" lon="-4.500005">
        <ele>37.599693</ele>
        <time>2024-10-19T08:48:10.000Z</time>
      </trkpt>
      <trkpt lat="36.633085" lon="-4.500016">
        <ele>37.40778</ele>
        <time>2024-10-19T08:48:11.000Z</time>
      </trkpt>
      <trkpt lat="36.633836" lon="-4.499504">
        <ele>35.59219</ele>
        <time>2024-10-19T08:48:21.000Z</time>
      </trkpt>
      <trkpt lat="36.634666" lon="-4.499124">
        <ele>33.961576</ele>
        <time>2024-10-19T08:48:31.000Z</time>
      </trkpt>
      <trkpt lat="36.635404" lon="-4.498833">
        <ele>32.760225</ele>
        <time>2024-10-19T08:48:40.000Z</time>
      </trkpt>
      <trkpt lat="36.636029" lon="-4.4985">
        <ele>31.949885</ele>
        <time>2024-10-19T08:48:48.000Z</time>
      </trkpt>
      <trkpt lat="36.637804" lon="-4.497256">
        <ele>29.115722</ele>
        <time>2024-10-19T08:49:11.000Z</time>
      </trkpt>
      <trkpt lat="36.63804" lon="-4.497126">
        <ele>28.718094</ele>
        <time>2024-10-19T08:49:14.000Z</time>
      </trkpt>
      <trkpt lat="36.639027" lon="-4.496642">
        <ele>26.931211</ele>
        <time>2024-10-19T08:49:26.000Z</time>
      </trkpt>
      <trkpt lat="36.639275" lon="-4.496489">
        <ele>26.423483</ele>
        <time>2024-10-19T08:49:29.000Z</time>
      </trkpt>
      <trkpt lat="36.639618" lon="-4.496287">
        <ele>25.78177</ele>
        <time>2024-10-19T08:49:33.000Z</time>
      </trkpt>
      <trkpt lat="36.63989" lon="-4.496074">
        <ele>25.177491</ele>
        <time>2024-10-19T08:49:37.000Z</time>
      </trkpt>
      <trkpt lat="36.639944" lon="-4.49603">
        <ele>25.047528</ele>
        <time>2024-10-19T08:49:38.000Z</time>
      </trkpt>
      <trkpt lat="36.640373" lon="-4.495658">
        <ele>23.772604</ele>
        <time>2024-10-19T08:49:44.000Z</time>
      </trkpt>
      <trkpt lat="36.6407" lon="-4.495324">
        <ele>22.739258</ele>
        <time>2024-10-19T08:49:49.000Z</time>
      </trkpt>
      <trkpt lat="36.642121" lon="-4.49339">
        <ele>17.317243</ele>
        <time>2024-10-19T08:50:12.000Z</time>
      </trkpt>
      <trkpt lat="36.642184" lon="-4.493166">
        <ele>16.791659</ele>
        <time>2024-10-19T08:50:14.000Z</time>
      </trkpt>
      <trkpt lat="36.642333" lon="-4.492916">
        <ele>16.127126</ele>
        <time>2024-10-19T08:50:17.000Z</time>
      </trkpt>
      <trkpt lat="36.642353" lon="-4.49291">
        <ele>16.107088</ele>
        <time>2024-10-19T08:50:17.000Z</time>
      </trkpt>
      <trkpt lat="36.642349" lon="-4.492918">
        <ele>16.104906</ele>
        <time>2024-10-19T08:50:17.000Z</time>
      </trkpt>
      <trkpt lat="36.642406" lon="-4.492813">
        <ele>15.946289</ele>
        <time>2024-10-19T08:50:18.000Z</time>
      </trkpt>
      <trkpt lat="36.64246" lon="-4.492611">
        <ele>15.643743</ele>
        <time>2024-10-19T08:50:20.000Z</time>
      </trkpt>
      <trkpt lat="36.642449" lon="-4.492509">
        <ele>15.502339</ele>
        <time>2024-10-19T08:50:21.000Z</time>
      </trkpt>
      <trkpt lat="36.64238" lon="-4.492354">
        <ele>15.272266</ele>
        <time>2024-10-19T08:50:23.000Z</time>
      </trkpt>
      <trkpt lat="36.64234" lon="-4.492318">
        <ele>15.174462</ele>
        <time>2024-10-19T08:50:24.000Z</time>
      </trkpt>
      <trkpt lat="36.642185" lon="-4.492157">
        <ele>14.821895</ele>
        <time>2024-10-19T08:50:26.000Z</time>
      </trkpt>
      <trkpt lat="36.642142" lon="-4.492106">
        <ele>14.730331</ele>
        <time>2024-10-19T08:50:27.000Z</time>
      </trkpt>
      <trkpt lat="36.642127" lon="-4.491954">
        <ele>14.505519</ele>
        <time>2024-10-19T08:50:28.000Z</time>
      </trkpt>
      <trkpt lat="36.642058" lon="-4.491594">
        <ele>14.012349</ele>
        <time>2024-10-19T08:50:31.000Z</time>
      </trkpt>
      <trkpt lat="36.642133" lon="-4.491593">
        <ele>13.874404</ele>
        <time>2024-10-19T08:50:32.000Z</time>
      </trkpt>
      <trkpt lat="36.642202" lon="-4.491647">
        <ele>13.737177</ele>
        <time>2024-10-19T08:50:33.000Z</time>
      </trkpt>
      <trkpt lat="36.642402" lon="-4.491229">
        <ele>13.090741</ele>
        <time>2024-10-19T08:50:37.000Z</time>
      </trkpt>
      <trkpt lat="36.642504" lon="-4.490968">
        <ele>12.69354</ele>
        <time>2024-10-19T08:50:40.000Z</time>
      </trkpt>
      <trkpt lat="36.642571" lon="-4.490796">
        <ele>12.447302</ele>
        <time>2024-10-19T08:50:42.000Z</time>
      </trkpt>
      <trkpt lat="36.642732" lon="-4.490141">
        <ele>11.529645</ele>
        <time>2024-10-19T08:50:48.000Z</time>
      </trkpt>
      <trkpt lat="36.643032" lon="-4.488724">
        <ele>9.606118</ele>
        <time>2024-10-19T08:51:01.000Z</time>
      </trkpt>
      <trkpt lat="36.643057" lon="-4.48856">
        <ele>9.392461</ele>
        <time>2024-10-19T08:51:02.000Z</time>
      </trkpt>
      <trkpt lat="36.643182" lon="-4.487987">
        <ele>8.626074</ele>
        <time>2024-10-19T08:51:07.000Z</time>
      </trkpt>
      <trkpt lat="36.643261" lon="-4.487677">
        <ele>8.215144</ele>
        <time>2024-10-19T08:51:10.000Z</time>
      </trkpt>
      <trkpt lat="36.643403" lon="-4.487149">
        <ele>7.515529</ele>
        <time>2024-10-19T08:51:15.000Z</time>
      </trkpt>
      <trkpt lat="36.64357" lon="-4.486658">
        <ele>7.046013</ele>
        <time>2024-10-19T08:51:20.000Z</time>
      </trkpt>
      <trkpt lat="36.643665" lon="-4.48646">
        <ele>6.922878</ele>
        <time>2024-10-19T08:51:22.000Z</time>
      </trkpt>
      <trkpt lat="36.643616" lon="-4.486353">
        <ele>6.861658</ele>
        <time>2024-10-19T08:51:23.000Z</time>
      </trkpt>
      <trkpt lat="36.643565" lon="-4.486307">
        <ele>6.806337</ele>
        <time>2024-10-19T08:51:24.000Z</time>
      </trkpt>
      <trkpt lat="36.643488" lon="-4.486304">
        <ele>6.754945</ele>
        <time>2024-10-19T08:51:25.000Z</time>
      </trkpt>
      <trkpt lat="36.641181" lon="-4.487717">
        <ele>5.372266</ele>
        <time>2024-10-19T08:51:54.000Z</time>
      </trkpt>
      <trkpt lat="36.641125" lon="-4.487753">
        <ele>5.343747</ele>
        <time>2024-10-19T08:51:55.000Z</time>
      </trkpt>
      <trkpt lat="36.641122" lon="-4.487763">
        <ele>5.340531</ele>
        <time>2024-10-19T08:51:55.000Z</time>
      </trkpt>
      <trkpt lat="36.641126" lon="-4.48776">
        <ele>5.339989</ele>
        <time>2024-10-19T08:51:55.000Z</time>
      </trkpt>
      <trkpt lat="36.640556" lon="-4.488112">
        <ele>5.185054</ele>
        <time>2024-10-19T08:52:02.000Z</time>
      </trkpt>
      <trkpt lat="36.640384" lon="-4.487679">
        <ele>5.14839</ele>
        <time>2024-10-19T08:52:06.000Z</time>
      </trkpt>
      <trkpt lat="36.640982" lon="-4.487325">
        <ele>5.084113</ele>
        <time>2024-10-19T08:52:13.000Z</time>
      </trkpt>
      <trkpt lat="36.642327" lon="-4.486496">
        <ele>5.277965</ele>
        <time>2024-10-19T08:52:30.000Z</time>
      </trkpt>
      <trkpt lat="36.64293" lon="-4.486127">
        <ele>5.428569</ele>
        <time>2024-10-19T08:52:37.000Z</time>
      </trkpt>
      <trkpt lat="36.643509" lon="-4.485781">
        <ele>5.924102</ele>
        <time>2024-10-19T08:52:44.000Z</time>
      </trkpt>
      <trkpt lat="36.643617" lon="-4.485706">
        <ele>6.033083</ele>
        <time>2024-10-19T08:52:45.000Z</time>
      </trkpt>
      <trkpt lat="36.643674" lon="-4.485668">
        <ele>6.079078</ele>
        <time>2024-10-19T08:52:46.000Z</time>
      </trkpt>
      <trkpt lat="36.643759" lon="-4.485688">
        <ele>6.151336</ele>
        <time>2024-10-19T08:52:47.000Z</time>
      </trkpt>
      <trkpt lat="36.643831" lon="-4.485722">
        <ele>6.20657</ele>
        <time>2024-10-19T08:52:48.000Z</time>
      </trkpt>
      <trkpt lat="36.643866" lon="-4.485773">
        <ele>6.257122</ele>
        <time>2024-10-19T08:52:49.000Z</time>
      </trkpt>
      <trkpt lat="36.643869" lon="-4.485775">
        <ele>6.263363</ele>
        <time>2024-10-19T08:52:49.000Z</time>
      </trkpt>
      <trkpt lat="36.643908" lon="-4.485923">
        <ele>6.364752</ele>
        <time>2024-10-19T08:52:50.000Z</time>
      </trkpt>
      <trkpt lat="36.643864" lon="-4.486026">
        <ele>6.438673</ele>
        <time>2024-10-19T08:52:51.000Z</time>
      </trkpt>
      <trkpt lat="36.643871" lon="-4.48605">
        <ele>6.453258</ele>
        <time>2024-10-19T08:52:51.000Z</time>
      </trkpt>
      <trkpt lat="36.643853" lon="-4.486142">
        <ele>6.51372</ele>
        <time>2024-10-19T08:52:52.000Z</time>
      </trkpt>
      <trkpt lat="36.643688" lon="-4.486439">
        <ele>6.747694</ele>
        <time>2024-10-19T08:52:55.000Z</time>
      </trkpt>
      <trkpt lat="36.643668" lon="-4.486469">
        <ele>6.782545</ele>
        <time>2024-10-19T08:52:55.000Z</time>
      </trkpt>
      <trkpt lat="36.643583" lon="-4.48665">
        <ele>6.929869</ele>
        <time>2024-10-19T08:52:57.000Z</time>
      </trkpt>
      <trkpt lat="36.643401" lon="-4.487153">
        <ele>7.591879</ele>
        <time>2024-10-19T08:53:02.000Z</time>
      </trkpt>
      <trkpt lat="36.643254" lon="-4.487677">
        <ele>8.268717</ele>
        <time>2024-10-19T08:53:07.000Z</time>
      </trkpt>
      <trkpt lat="36.643183" lon="-4.487976">
        <ele>8.666252</ele>
        <time>2024-10-19T08:53:10.000Z</time>
      </trkpt>
      <trkpt lat="36.643054" lon="-4.488573">
        <ele>9.407677</ele>
        <time>2024-10-19T08:53:16.000Z</time>
      </trkpt>
      <trkpt lat="36.643025" lon="-4.488726">
        <ele>9.614374</ele>
        <time>2024-10-19T08:53:17.000Z</time>
      </trkpt>
      <trkpt lat="36.642735" lon="-4.49015">
        <ele>11.58883</ele>
        <time>2024-10-19T08:53:30.000Z</time>
      </trkpt>
      <trkpt lat="36.642575" lon="-4.490794">
        <ele>12.522883</ele>
        <time>2024-10-19T08:53:36.000Z</time>
      </trkpt>
      <trkpt lat="36.642505" lon="-4.490958">
        <ele>12.760192</ele>
        <time>2024-10-19T08:53:38.000Z</time>
      </trkpt>
      <trkpt lat="36.642418" lon="-4.491227">
        <ele>13.044381</ele>
        <time>2024-10-19T08:53:41.000Z</time>
      </trkpt>
      <trkpt lat="36.642203" lon="-4.491647">
        <ele>13.497609</ele>
        <time>2024-10-19T08:53:45.000Z</time>
      </trkpt>
      <trkpt lat="36.642246" lon="-4.491737">
        <ele>13.6071</ele>
        <time>2024-10-19T08:53:46.000Z</time>
      </trkpt>
      <trkpt lat="36.642238" lon="-4.491856">
        <ele>13.716178</ele>
        <time>2024-10-19T08:53:47.000Z</time>
      </trkpt>
      <trkpt lat="36.642164" lon="-4.491932">
        <ele>13.825518</ele>
        <time>2024-10-19T08:53:48.000Z</time>
      </trkpt>
      <trkpt lat="36.642118" lon="-4.491949">
        <ele>13.881064</ele>
        <time>2024-10-19T08:53:49.000Z</time>
      </trkpt>
      <trkpt lat="36.642147" lon="-4.492112">
        <ele>14.038707</ele>
        <time>2024-10-19T08:53:50.000Z</time>
      </trkpt>
      <trkpt lat="36.64218" lon="-4.492158">
        <ele>14.102894</ele>
        <time>2024-10-19T08:53:51.000Z</time>
      </trkpt>
      <trkpt lat="36.64234" lon="-4.492324">
        <ele>14.350099</ele>
        <time>2024-10-19T08:53:53.000Z</time>
      </trkpt>
      <trkpt lat="36.642389" lon="-4.492369">
        <ele>14.418675</ele>
        <time>2024-10-19T08:53:54.000Z</time>
      </trkpt>
      <trkpt lat="36.642591" lon="-4.49241">
        <ele>14.675293</ele>
        <time>2024-10-19T08:53:56.000Z</time>
      </trkpt>
      <trkpt lat="36.642759" lon="-4.49233">
        <ele>14.870607</ele>
        <time>2024-10-19T08:53:58.000Z</time>
      </trkpt>
      <trkpt lat="36.642817" lon="-4.492258">
        <ele>14.989423</ele>
        <time>2024-10-19T08:53:59.000Z</time>
      </trkpt>
      <trkpt lat="36.642828" lon="-4.492232">
        <ele>15.007942</ele>
        <time>2024-10-19T08:53:59.000Z</time>
      </trkpt>
      <trkpt lat="36.64284" lon="-4.49223">
        <ele>15.016317</ele>
        <time>2024-10-19T08:53:59.000Z</time>
      </trkpt>
      <trkpt lat="36.642961" lon="-4.492099">
        <ele>15.208638</ele>
        <time>2024-10-19T08:54:01.000Z</time>
      </trkpt>
      <trkpt lat="36.643071" lon="-4.492072">
        <ele>15.332426</ele>
        <time>2024-10-19T08:54:02.000Z</time>
      </trkpt>
      <trkpt lat="36.643483" lon="-4.491548">
        <ele>16.045583</ele>
        <time>2024-10-19T08:54:09.000Z</time>
      </trkpt>
      <trkpt lat="36.643883" lon="-4.491031">
        <ele>16.751231</ele>
        <time>2024-10-19T08:54:15.000Z</time>
      </trkpt>
      <trkpt lat="36.644268" lon="-4.490569">
        <ele>17.241472</ele>
        <time>2024-10-19T08:54:21.000Z</time>
      </trkpt>
      <trkpt lat="36.644595" lon="-4.490248">
        <ele>17.526488</ele>
        <time>2024-10-19T08:54:26.000Z</time>
      </trkpt>
      <trkpt lat="36.644888" lon="-4.490043">
        <ele>17.74641</ele>
        <time>2024-10-19T08:54:30.000Z</time>
      </trkpt>
      <trkpt lat="36.645163" lon="-4.489913">
        <ele>17.948446</ele>
        <time>2024-10-19T08:54:33.000Z</time>
      </trkpt>
      <trkpt lat="36.64528" lon="-4.489844">
        <ele>18.039621</ele>
        <time>2024-10-19T08:54:34.000Z</time>
      </trkpt>
      <trkpt lat="36.645296" lon="-4.489851">
        <ele>18.039621</ele>
        <time>2024-10-19T08:54:34.000Z</time>
      </trkpt>
      <trkpt lat="36.645287" lon="-4.48984">
        <ele>18.039617</ele>
        <time>2024-10-19T08:54:34.000Z</time>
      </trkpt>
      <trkpt lat="36.645327" lon="-4.489954">
        <ele>18.103118</ele>
        <time>2024-10-19T08:54:35.000Z</time>
      </trkpt>
      <trkpt lat="36.645222" lon="-4.490004">
        <ele>18.179048</ele>
        <time>2024-10-19T08:54:36.000Z</time>
      </trkpt>
      <trkpt lat="36.644928" lon="-4.490172">
        <ele>18.08076</ele>
        <time>2024-10-19T08:54:40.000Z</time>
      </trkpt>
      <trkpt lat="36.644524" lon="-4.490488">
        <ele>17.654216</ele>
        <time>2024-10-19T08:54:45.000Z</time>
      </trkpt>
      <trkpt lat="36.643941" lon="-4.491135">
        <ele>16.956187</ele>
        <time>2024-10-19T08:54:54.000Z</time>
      </trkpt>
      <trkpt lat="36.643092" lon="-4.492269">
        <ele>16.731828</ele>
        <time>2024-10-19T08:55:08.000Z</time>
      </trkpt>
      <trkpt lat="36.642638" lon="-4.492865">
        <ele>16.79888</ele>
        <time>2024-10-19T08:55:15.000Z</time>
      </trkpt>
      <trkpt lat="36.642376" lon="-4.493247">
        <ele>17.187311</ele>
        <time>2024-10-19T08:55:19.000Z</time>
      </trkpt>
      <trkpt lat="36.642367" lon="-4.493251">
        <ele>17.203079</ele>
        <time>2024-10-19T08:55:19.000Z</time>
      </trkpt>
      <trkpt lat="36.642371" lon="-4.493254">
        <ele>17.204766</ele>
        <time>2024-10-19T08:55:19.000Z</time>
      </trkpt>
      <trkpt lat="36.641709" lon="-4.49418">
        <ele>19.275371</ele>
        <time>2024-10-19T08:55:30.000Z</time>
      </trkpt>
      <trkpt lat="36.641414" lon="-4.494623">
        <ele>20.249105</ele>
        <time>2024-10-19T08:55:35.000Z</time>
      </trkpt>
      <trkpt lat="36.641073" lon="-4.495071">
        <ele>21.569083</ele>
        <time>2024-10-19T08:55:41.000Z</time>
      </trkpt>
      <trkpt lat="36.641027" lon="-4.495105">
        <ele>21.695309</ele>
        <time>2024-10-19T08:55:42.000Z</time>
      </trkpt>
      <trkpt lat="36.64081" lon="-4.495382">
        <ele>22.612923</ele>
        <time>2024-10-19T08:55:45.000Z</time>
      </trkpt>
      <trkpt lat="36.64062" lon="-4.495611">
        <ele>23.403411</ele>
        <time>2024-10-19T08:55:48.000Z</time>
      </trkpt>
      <trkpt lat="36.639936" lon="-4.496175">
        <ele>25.745093</ele>
        <time>2024-10-19T08:55:57.000Z</time>
      </trkpt>
      <trkpt lat="36.639862" lon="-4.496226">
        <ele>25.953607</ele>
        <time>2024-10-19T08:55:58.000Z</time>
      </trkpt>
      <trkpt lat="36.639837" lon="-4.496243">
        <ele>26.014042</ele>
        <time>2024-10-19T08:55:58.000Z</time>
      </trkpt>
      <trkpt lat="36.639847" lon="-4.496252">
        <ele>26.018916</ele>
        <time>2024-10-19T08:55:58.000Z</time>
      </trkpt>
      <trkpt lat="36.639645" lon="-4.496386">
        <ele>26.527396</ele>
        <time>2024-10-19T08:56:01.000Z</time>
      </trkpt>
      <trkpt lat="36.639044" lon="-4.496754">
        <ele>28.032852</ele>
        <time>2024-10-19T08:56:08.000Z</time>
      </trkpt>
      <trkpt lat="36.638068" lon="-4.497219">
        <ele>30.289933</ele>
        <time>2024-10-19T08:56:20.000Z</time>
      </trkpt>
      <trkpt lat="36.636725" lon="-4.498129">
        <ele>33.050069</ele>
        <time>2024-10-19T08:56:37.000Z</time>
      </trkpt>
      <trkpt lat="36.636421" lon="-4.498374">
        <ele>33.65289</ele>
        <time>2024-10-19T08:56:41.000Z</time>
      </trkpt>
      <trkpt lat="36.636421" lon="-4.498369">
        <ele>33.662644</ele>
        <time>2024-10-19T08:56:41.000Z</time>
      </trkpt>
      <trkpt lat="36.636404" lon="-4.498389">
        <ele>33.691221</ele>
        <time>2024-10-19T08:56:41.000Z</time>
      </trkpt>
      <trkpt lat="36.636363" lon="-4.49841">
        <ele>33.764379</ele>
        <time>2024-10-19T08:56:41.000Z</time>
      </trkpt>
      <trkpt lat="36.635728" lon="-4.498786">
        <ele>34.912784</ele>
        <time>2024-10-19T08:56:49.000Z</time>
      </trkpt>
      <trkpt lat="36.635135" lon="-4.499064">
        <ele>35.964823</ele>
        <time>2024-10-19T08:56:56.000Z</time>
      </trkpt>
      <trkpt lat="36.634655" lon="-4.499254">
        <ele>36.609788</ele>
        <time>2024-10-19T08:57:02.000Z</time>
      </trkpt>
      <trkpt lat="36.634074" lon="-4.499501">
        <ele>37.359832</ele>
        <time>2024-10-19T08:57:09.000Z</time>
      </trkpt>
      <trkpt lat="36.633624" lon="-4.499738">
        <ele>37.943431</ele>
        <time>2024-10-19T08:57:14.000Z</time>
      </trkpt>
      <trkpt lat="36.633307" lon="-4.499962">
        <ele>38.463602</ele>
        <time>2024-10-19T08:57:18.000Z</time>
      </trkpt>
      <trkpt lat="36.633147" lon="-4.500114">
        <ele>38.833786</ele>
        <time>2024-10-19T08:57:20.000Z</time>
      </trkpt>
      <trkpt lat="36.633126" lon="-4.500238">
        <ele>39.021355</ele>
        <time>2024-10-19T08:57:21.000Z</time>
      </trkpt>
      <trkpt lat="36.633062" lon="-4.500267">
        <ele>39.161244</ele>
        <time>2024-10-19T08:57:22.000Z</time>
      </trkpt>
      <trkpt lat="36.633003" lon="-4.500269">
        <ele>39.26184</ele>
        <time>2024-10-19T08:57:23.000Z</time>
      </trkpt>
      <trkpt lat="36.631769" lon="-4.501331">
        <ele>42.62181</ele>
        <time>2024-10-19T08:57:40.000Z</time>
      </trkpt>
      <trkpt lat="36.631484" lon="-4.501593">
        <ele>43.996495</ele>
        <time>2024-10-19T08:57:44.000Z</time>
      </trkpt>
      <trkpt lat="36.630764" lon="-4.502277">
        <ele>47.561082</ele>
        <time>2024-10-19T08:57:54.000Z</time>
      </trkpt>
      <trkpt lat="36.630397" lon="-4.502675">
        <ele>49.287616</ele>
        <time>2024-10-19T08:57:59.000Z</time>
      </trkpt>
      <trkpt lat="36.630046" lon="-4.503163">
        <ele>50.691994</ele>
        <time>2024-10-19T08:58:05.000Z</time>
      </trkpt>
      <trkpt lat="36.630043" lon="-4.503173">
        <ele>50.745024</ele>
        <time>2024-10-19T08:58:05.000Z</time>
      </trkpt>
      <trkpt lat="36.629602" lon="-4.503776">
        <ele>52.505387</ele>
        <time>2024-10-19T08:58:12.000Z</time>
      </trkpt>
      <trkpt lat="36.629459" lon="-4.504021">
        <ele>53.159975</ele>
        <time>2024-10-19T08:58:15.000Z</time>
      </trkpt>
      <trkpt lat="36.629488" lon="-4.50412">
        <ele>53.379372</ele>
        <time>2024-10-19T08:58:16.000Z</time>
      </trkpt>
      <trkpt lat="36.629482" lon="-4.504216">
        <ele>53.600701</ele>
        <time>2024-10-19T08:58:17.000Z</time>
      </trkpt>
      <trkpt lat="36.629462" lon="-4.5043">
        <ele>53.744837</ele>
        <time>2024-10-19T08:58:18.000Z</time>
      </trkpt>
      <trkpt lat="36.629403" lon="-4.504387">
        <ele>53.809216</ele>
        <time>2024-10-19T08:58:19.000Z</time>
      </trkpt>
      <trkpt lat="36.629324" lon="-4.504436">
        <ele>53.872535</ele>
        <time>2024-10-19T08:58:20.000Z</time>
      </trkpt>
      <trkpt lat="36.629258" lon="-4.504445">
        <ele>53.936311</ele>
        <time>2024-10-19T08:58:21.000Z</time>
      </trkpt>
      <trkpt lat="36.629178" lon="-4.50443">
        <ele>53.99989</ele>
        <time>2024-10-19T08:58:22.000Z</time>
      </trkpt>
      <trkpt lat="36.629054" lon="-4.504496">
        <ele>54.092919</ele>
        <time>2024-10-19T08:58:23.000Z</time>
      </trkpt>
      <trkpt lat="36.628721" lon="-4.504827">
        <ele>54.427278</ele>
        <time>2024-10-19T08:58:28.000Z</time>
      </trkpt>
      <trkpt lat="36.628349" lon="-4.505171">
        <ele>54.788475</ele>
        <time>2024-10-19T08:58:33.000Z</time>
      </trkpt>
      <trkpt lat="36.626214" lon="-4.506929">
        <ele>57.617552</ele>
        <time>2024-10-19T08:59:01.000Z</time>
      </trkpt>
      <trkpt lat="36.625517" lon="-4.507428">
        <ele>59.461154</ele>
        <time>2024-10-19T08:59:10.000Z</time>
      </trkpt>
      <trkpt lat="36.624023" lon="-4.508291">
        <ele>63.697657</ele>
        <time>2024-10-19T08:59:28.000Z</time>
      </trkpt>
      <trkpt lat="36.623099" lon="-4.508613">
        <ele>66.066535</ele>
        <time>2024-10-19T08:59:39.000Z</time>
      </trkpt>
      <trkpt lat="36.621898" lon="-4.508852">
        <ele>67.451399</ele>
        <time>2024-10-19T08:59:53.000Z</time>
      </trkpt>
      <trkpt lat="36.621464" lon="-4.508869">
        <ele>67.951033</ele>
        <time>2024-10-19T08:59:58.000Z</time>
      </trkpt>
      <trkpt lat="36.621191" lon="-4.508874">
        <ele>68.0296</ele>
        <time>2024-10-19T09:00:01.000Z</time>
      </trkpt>
      <trkpt lat="36.621018" lon="-4.508897">
        <ele>68.080508</ele>
        <time>2024-10-19T09:00:03.000Z</time>
      </trkpt>
      <trkpt lat="36.620844" lon="-4.508901">
        <ele>68.133197</ele>
        <time>2024-10-19T09:00:05.000Z</time>
      </trkpt>
      <trkpt lat="36.620832" lon="-4.508904">
        <ele>68.134974</ele>
        <time>2024-10-19T09:00:05.000Z</time>
      </trkpt>
      <trkpt lat="36.620833" lon="-4.508904">
        <ele>68.136757</ele>
        <time>2024-10-19T09:00:05.000Z</time>
      </trkpt>
      <trkpt lat="36.62063" lon="-4.508924">
        <ele>68.195938</ele>
        <time>2024-10-19T09:00:07.000Z</time>
      </trkpt>
      <trkpt lat="36.620436" lon="-4.508925">
        <ele>68.251151</ele>
        <time>2024-10-19T09:00:09.000Z</time>
      </trkpt>
      <trkpt lat="36.620417" lon="-4.508927">
        <ele>68.260624</ele>
        <time>2024-10-19T09:00:09.000Z</time>
      </trkpt>
      <trkpt lat="36.617976" lon="-4.509028">
        <ele>68.668063</ele>
        <time>2024-10-19T09:00:36.000Z</time>
      </trkpt>
      <trkpt lat="36.617585" lon="-4.509075">
        <ele>68.432997</ele>
        <time>2024-10-19T09:00:40.000Z</time>
      </trkpt>
      <trkpt lat="36.617106" lon="-4.509155">
        <ele>68.021017</ele>
        <time>2024-10-19T09:00:45.000Z</time>
      </trkpt>
      <trkpt lat="36.616787" lon="-4.509254">
        <ele>67.733575</ele>
        <time>2024-10-19T09:00:49.000Z</time>
      </trkpt>
      <trkpt lat="36.616322" lon="-4.509448">
        <ele>67.315307</ele>
        <time>2024-10-19T09:00:54.000Z</time>
      </trkpt>
      <trkpt lat="36.615852" lon="-4.509708">
        <ele>66.786413</ele>
        <time>2024-10-19T09:01:00.000Z</time>
      </trkpt>
      <trkpt lat="36.615702" lon="-4.509885">
        <ele>66.573827</ele>
        <time>2024-10-19T09:01:02.000Z</time>
      </trkpt>
      <trkpt lat="36.615705" lon="-4.50989">
        <ele>66.558573</ele>
        <time>2024-10-19T09:01:02.000Z</time>
      </trkpt>
      <trkpt lat="36.615664" lon="-4.509967">
        <ele>66.4867</ele>
        <time>2024-10-19T09:01:03.000Z</time>
      </trkpt>
      <trkpt lat="36.615596" lon="-4.510007">
        <ele>66.408227</ele>
        <time>2024-10-19T09:01:04.000Z</time>
      </trkpt>
      <trkpt lat="36.615541" lon="-4.509997">
        <ele>66.337299</ele>
        <time>2024-10-19T09:01:05.000Z</time>
      </trkpt>
      <trkpt lat="36.615363" lon="-4.510016">
        <ele>66.146162</ele>
        <time>2024-10-19T09:01:07.000Z</time>
      </trkpt>
      <trkpt lat="36.615267" lon="-4.510077">
        <ele>66.022553</ele>
        <time>2024-10-19T09:01:08.000Z</time>
      </trkpt>
      <trkpt lat="36.61339" lon="-4.511251">
        <ele>64.006157</ele>
        <time>2024-10-19T09:01:31.000Z</time>
      </trkpt>
      <trkpt lat="36.612972" lon="-4.511515">
        <ele>63.596596</ele>
        <time>2024-10-19T09:01:36.000Z</time>
      </trkpt>
      <trkpt lat="36.61237" lon="-4.511905">
        <ele>63.127111</ele>
        <time>2024-10-19T09:01:44.000Z</time>
      </trkpt>
      <trkpt lat="36.610737" lon="-4.512931">
        <ele>61.476368</ele>
        <time>2024-10-19T09:02:04.000Z</time>
      </trkpt>
      <trkpt lat="36.610277" lon="-4.51323">
        <ele>60.816119</ele>
        <time>2024-10-19T09:02:10.000Z</time>
      </trkpt>
      <trkpt lat="36.609888" lon="-4.513566">
        <ele>60.217345</ele>
        <time>2024-10-19T09:02:15.000Z</time>
      </trkpt>
      <trkpt lat="36.609625" lon="-4.513855">
        <ele>59.237196</ele>
        <time>2024-10-19T09:02:19.000Z</time>
      </trkpt>
      <trkpt lat="36.609546" lon="-4.513861">
        <ele>58.963708</ele>
        <time>2024-10-19T09:02:20.000Z</time>
      </trkpt>
      <trkpt lat="36.60954" lon="-4.513876">
        <ele>58.908497</ele>
        <time>2024-10-19T09:02:20.000Z</time>
      </trkpt>
      <trkpt lat="36.60949" lon="-4.513929">
        <ele>58.715468</ele>
        <time>2024-10-19T09:02:21.000Z</time>
      </trkpt>
      <trkpt lat="36.609368" lon="-4.513992">
        <ele>58.257695</ele>
        <time>2024-10-19T09:02:22.000Z</time>
      </trkpt>
      <trkpt lat="36.609308" lon="-4.513988">
        <ele>58.02449</ele>
        <time>2024-10-19T09:02:23.000Z</time>
      </trkpt>
      <trkpt lat="36.609198" lon="-4.513898">
        <ele>57.56566</ele>
        <time>2024-10-19T09:02:24.000Z</time>
      </trkpt>
      <trkpt lat="36.609171" lon="-4.513855">
        <ele>57.426774</ele>
        <time>2024-10-19T09:02:24.000Z</time>
      </trkpt>
      <trkpt lat="36.608741" lon="-4.513954">
        <ele>55.90848</ele>
        <time>2024-10-19T09:02:29.000Z</time>
      </trkpt>
      <trkpt lat="36.608381" lon="-4.514005">
        <ele>54.592308</ele>
        <time>2024-10-19T09:02:33.000Z</time>
      </trkpt>
      <trkpt lat="36.607195" lon="-4.513998">
        <ele>48.925202</ele>
        <time>2024-10-19T09:02:46.000Z</time>
      </trkpt>
      <trkpt lat="36.606971" lon="-4.514002">
        <ele>47.672571</ele>
        <time>2024-10-19T09:02:48.000Z</time>
      </trkpt>
      <trkpt lat="36.606868" lon="-4.514092">
        <ele>47.118984</ele>
        <time>2024-10-19T09:02:49.000Z</time>
      </trkpt>
      <trkpt lat="36.606771" lon="-4.51404">
        <ele>46.536526</ele>
        <time>2024-10-19T09:02:50.000Z</time>
      </trkpt>
      <trkpt lat="36.606619" lon="-4.514021">
        <ele>45.710114</ele>
        <time>2024-10-19T09:02:52.000Z</time>
      </trkpt>
      <trkpt lat="36.606314" lon="-4.514043">
        <ele>44.153573</ele>
        <time>2024-10-19T09:02:55.000Z</time>
      </trkpt>
      <trkpt lat="36.605064" lon="-4.514354">
        <ele>37.661896</ele>
        <time>2024-10-19T09:03:09.000Z</time>
      </trkpt>
      <trkpt lat="36.604746" lon="-4.514412">
        <ele>35.965232</ele>
        <time>2024-10-19T09:03:13.000Z</time>
      </trkpt>
      <trkpt lat="36.604478" lon="-4.514419">
        <ele>35.106226</ele>
        <time>2024-10-19T09:03:16.000Z</time>
      </trkpt>
      <trkpt lat="36.6043" lon="-4.514393">
        <ele>35.032484</ele>
        <time>2024-10-19T09:03:18.000Z</time>
      </trkpt>
      <trkpt lat="36.603884" lon="-4.514241">
        <ele>34.847078</ele>
        <time>2024-10-19T09:03:23.000Z</time>
      </trkpt>
      <trkpt lat="36.603634" lon="-4.514102">
        <ele>34.73215</ele>
        <time>2024-10-19T09:03:26.000Z</time>
      </trkpt>
      <trkpt lat="36.603615" lon="-4.5141">
        <ele>34.729819</ele>
        <time>2024-10-19T09:03:26.000Z</time>
      </trkpt>
      <trkpt lat="36.603628" lon="-4.514105">
        <ele>34.729827</ele>
        <time>2024-10-19T09:03:26.000Z</time>
      </trkpt>
      <trkpt lat="36.603627" lon="-4.514102">
        <ele>34.729819</ele>
        <time>2024-10-19T09:03:26.000Z</time>
      </trkpt>
      <trkpt lat="36.603644" lon="-4.514014">
        <ele>34.696329</ele>
        <time>2024-10-19T09:03:27.000Z</time>
      </trkpt>
      <trkpt lat="36.603651" lon="-4.514008">
        <ele>34.695787</ele>
        <time>2024-10-19T09:03:27.000Z</time>
      </trkpt>
      <trkpt lat="36.60364" lon="-4.514019">
        <ele>34.695247</ele>
        <time>2024-10-19T09:03:27.000Z</time>
      </trkpt>
      <trkpt lat="36.603689" lon="-4.514041">
        <ele>34.67879</ele>
        <time>2024-10-19T09:03:28.000Z</time>
      </trkpt>
      <trkpt lat="36.60418" lon="-4.51425">
        <ele>34.459716</ele>
        <time>2024-10-19T09:03:34.000Z</time>
      </trkpt>
      <trkpt lat="36.60447" lon="-4.514304">
        <ele>35.124121</ele>
        <time>2024-10-19T09:03:37.000Z</time>
      </trkpt>
      <trkpt lat="36.604747" lon="-4.514317">
        <ele>36.417653</ele>
        <time>2024-10-19T09:03:40.000Z</time>
      </trkpt>
      <trkpt lat="36.605054" lon="-4.514278">
        <ele>37.90814</ele>
        <time>2024-10-19T09:03:43.000Z</time>
      </trkpt>
      <trkpt lat="36.606754" lon="-4.513846">
        <ele>46.462344</ele>
        <time>2024-10-19T09:04:02.000Z</time>
      </trkpt>
      <trkpt lat="36.606812" lon="-4.51377">
        <ele>46.890923</ele>
        <time>2024-10-19T09:04:03.000Z</time>
      </trkpt>
      <trkpt lat="36.60689" lon="-4.51378">
        <ele>47.296848</ele>
        <time>2024-10-19T09:04:04.000Z</time>
      </trkpt>
      <trkpt lat="36.606943" lon="-4.513818">
        <ele>47.601061</ele>
        <time>2024-10-19T09:04:05.000Z</time>
      </trkpt>
      <trkpt lat="36.60698" lon="-4.513874">
        <ele>47.863612</ele>
        <time>2024-10-19T09:04:06.000Z</time>
      </trkpt>
      <trkpt lat="36.608369" lon="-4.513894">
        <ele>54.275353</ele>
        <time>2024-10-19T09:04:21.000Z</time>
      </trkpt>
      <trkpt lat="36.608888" lon="-4.513784">
        <ele>56.206416</ele>
        <time>2024-10-19T09:04:27.000Z</time>
      </trkpt>
      <trkpt lat="36.608998" lon="-4.513716">
        <ele>56.665661</ele>
        <time>2024-10-19T09:04:28.000Z</time>
      </trkpt>
      <trkpt lat="36.609169" lon="-4.513571">
        <ele>57.383649</ele>
        <time>2024-10-19T09:04:30.000Z</time>
      </trkpt>
      <trkpt lat="36.609173" lon="-4.513569">
        <ele>57.434441</ele>
        <time>2024-10-19T09:04:30.000Z</time>
      </trkpt>
      <trkpt lat="36.609258" lon="-4.513463">
        <ele>57.864813</ele>
        <time>2024-10-19T09:04:31.000Z</time>
      </trkpt>
      <trkpt lat="36.609384" lon="-4.513428">
        <ele>58.295623</ele>
        <time>2024-10-19T09:04:32.000Z</time>
      </trkpt>
      <trkpt lat="36.609429" lon="-4.513442">
        <ele>58.46642</ele>
        <time>2024-10-19T09:04:33.000Z</time>
      </trkpt>
      <trkpt lat="36.609802" lon="-4.513354">
        <ele>59.333259</ele>
        <time>2024-10-19T09:04:37.000Z</time>
      </trkpt>
      <trkpt lat="36.610219" lon="-4.513133">
        <ele>60.09499</ele>
        <time>2024-10-19T09:04:42.000Z</time>
      </trkpt>
      <trkpt lat="36.612129" lon="-4.511943">
        <ele>62.754363</ele>
        <time>2024-10-19T09:05:06.000Z</time>
      </trkpt>
      <trkpt lat="36.612356" lon="-4.511805">
        <ele>62.949862</ele>
        <time>2024-10-19T09:05:09.000Z</time>
      </trkpt>
      <trkpt lat="36.613505" lon="-4.511079">
        <ele>63.962539</ele>
        <time>2024-10-19T09:05:23.000Z</time>
      </trkpt>
      <trkpt lat="36.615224" lon="-4.509989">
        <ele>65.877575</ele>
        <time>2024-10-19T09:05:44.000Z</time>
      </trkpt>
      <trkpt lat="36.615474" lon="-4.509785">
        <ele>66.234496</ele>
        <time>2024-10-19T09:05:47.000Z</time>
      </trkpt>
      <trkpt lat="36.615484" lon="-4.509758">
        <ele>66.266071</ele>
        <time>2024-10-19T09:05:47.000Z</time>
      </trkpt>
      <trkpt lat="36.615569" lon="-4.509708">
        <ele>66.380478</ele>
        <time>2024-10-19T09:05:48.000Z</time>
      </trkpt>
      <trkpt lat="36.615624" lon="-4.509715">
        <ele>66.459644</ele>
        <time>2024-10-19T09:05:49.000Z</time>
      </trkpt>
      <trkpt lat="36.615639" lon="-4.509727">
        <ele>66.469526</ele>
        <time>2024-10-19T09:05:49.000Z</time>
      </trkpt>
      <trkpt lat="36.615887" lon="-4.509567">
        <ele>66.814796</ele>
        <time>2024-10-19T09:05:52.000Z</time>
      </trkpt>
      <trkpt lat="36.616531" lon="-4.509253">
        <ele>67.383707</ele>
        <time>2024-10-19T09:06:00.000Z</time>
      </trkpt>
      <trkpt lat="36.617355" lon="-4.509009">
        <ele>68.04697</ele>
        <time>2024-10-19T09:06:09.000Z</time>
      </trkpt>
      <trkpt lat="36.618286" lon="-4.508905">
        <ele>68.172121</ele>
        <time>2024-10-19T09:06:19.000Z</time>
      </trkpt>
      <trkpt lat="36.61972" lon="-4.508844">
        <ele>67.862009</ele>
        <time>2024-10-19T09:06:35.000Z</time>
      </trkpt>
      <trkpt lat="36.62041" lon="-4.508822">
        <ele>67.843867</ele>
        <time>2024-10-19T09:06:43.000Z</time>
      </trkpt>
      <trkpt lat="36.620623" lon="-4.508818">
        <ele>67.838215</ele>
        <time>2024-10-19T09:06:45.000Z</time>
      </trkpt>
      <trkpt lat="36.621015" lon="-4.508803">
        <ele>67.827958</ele>
        <time>2024-10-19T09:06:49.000Z</time>
      </trkpt>
      <trkpt lat="36.62118" lon="-4.508789">
        <ele>67.823424</ele>
        <time>2024-10-19T09:06:51.000Z</time>
      </trkpt>
      <trkpt lat="36.6219" lon="-4.508763">
        <ele>67.303478</ele>
        <time>2024-10-19T09:06:59.000Z</time>
      </trkpt>
      <trkpt lat="36.622596" lon="-4.508634">
        <ele>66.689086</ele>
        <time>2024-10-19T09:07:07.000Z</time>
      </trkpt>
      <trkpt lat="36.623267" lon="-4.508471">
        <ele>65.770928</ele>
        <time>2024-10-19T09:07:15.000Z</time>
      </trkpt>
      <trkpt lat="36.623442" lon="-4.508407">
        <ele>65.275557</ele>
        <time>2024-10-19T09:07:17.000Z</time>
      </trkpt>
      <trkpt lat="36.623999" lon="-4.508213">
        <ele>63.670438</ele>
        <time>2024-10-19T09:07:23.000Z</time>
      </trkpt>
      <trkpt lat="36.625475" lon="-4.507368">
        <ele>59.449474</ele>
        <time>2024-10-19T09:07:41.000Z</time>
      </trkpt>
      <trkpt lat="36.626171" lon="-4.50687">
        <ele>57.497376</ele>
        <time>2024-10-19T09:07:50.000Z</time>
      </trkpt>
      <trkpt lat="36.628192" lon="-4.505133">
        <ele>54.71906</ele>
        <time>2024-10-19T09:08:17.000Z</time>
      </trkpt>
      <trkpt lat="36.628264" lon="-4.505078">
        <ele>54.652625</ele>
        <time>2024-10-19T09:08:18.000Z</time>
      </trkpt>
      <trkpt lat="36.628629" lon="-4.504753">
        <ele>54.285822</ele>
        <time>2024-10-19T09:08:23.000Z</time>
      </trkpt>
      <trkpt lat="36.628907" lon="-4.504484">
        <ele>53.999385</ele>
        <time>2024-10-19T09:08:27.000Z</time>
      </trkpt>
      <trkpt lat="36.628978" lon="-4.504377">
        <ele>53.899952</ele>
        <time>2024-10-19T09:08:28.000Z</time>
      </trkpt>
      <trkpt lat="36.629025" lon="-4.504254">
        <ele>53.820338</ele>
        <time>2024-10-19T09:08:29.000Z</time>
      </trkpt>
      <trkpt lat="36.629009" lon="-4.504129">
        <ele>53.734449</ele>
        <time>2024-10-19T09:08:30.000Z</time>
      </trkpt>
      <trkpt lat="36.629011" lon="-4.504052">
        <ele>53.676145</ele>
        <time>2024-10-19T09:08:31.000Z</time>
      </trkpt>
      <trkpt lat="36.629101" lon="-4.503914">
        <ele>53.467883</ele>
        <time>2024-10-19T09:08:33.000Z</time>
      </trkpt>
      <trkpt lat="36.629174" lon="-4.503871">
        <ele>53.245397</ele>
        <time>2024-10-19T09:08:34.000Z</time>
      </trkpt>
      <trkpt lat="36.629325" lon="-4.503866">
        <ele>52.811564</ele>
        <time>2024-10-19T09:08:36.000Z</time>
      </trkpt>
      <trkpt lat="36.629544" lon="-4.503704">
        <ele>52.129096</ele>
        <time>2024-10-19T09:08:39.000Z</time>
      </trkpt>
      <trkpt lat="36.629938" lon="-4.503126">
        <ele>50.463255</ele>
        <time>2024-10-19T09:08:46.000Z</time>
      </trkpt>
      <trkpt lat="36.630341" lon="-4.50259">
        <ele>48.81357</ele>
        <time>2024-10-19T09:08:53.000Z</time>
      </trkpt>
      <trkpt lat="36.630688" lon="-4.502203">
        <ele>47.05991</ele>
        <time>2024-10-19T09:08:58.000Z</time>
      </trkpt>
      <trkpt lat="36.631429" lon="-4.5015">
        <ele>43.403972</ele>
        <time>2024-10-19T09:09:08.000Z</time>
      </trkpt>
      <trkpt lat="36.631718" lon="-4.501244">
        <ele>42.026636</ele>
        <time>2024-10-19T09:09:12.000Z</time>
      </trkpt>
      <trkpt lat="36.63279" lon="-4.500276">
        <ele>38.433294</ele>
        <time>2024-10-19T09:09:27.000Z</time>
      </trkpt>
      <trkpt lat="36.632869" lon="-4.500166">
        <ele>38.093999</ele>
        <time>2024-10-19T09:09:28.000Z</time>
      </trkpt>
      <trkpt lat="36.632944" lon="-4.500122">
        <ele>37.907928</ele>
        <time>2024-10-19T09:09:29.000Z</time>
      </trkpt>
      <trkpt lat="36.632979" lon="-4.500032">
        <ele>37.679456</ele>
        <time>2024-10-19T09:09:30.000Z</time>
      </trkpt>
      <trkpt lat="36.633014" lon="-4.500019">
        <ele>37.582008</ele>
        <time>2024-10-19T09:09:30.000Z</time>
      </trkpt>
      <trkpt lat="36.633094" lon="-4.500017">
        <ele>37.386313</ele>
        <time>2024-10-19T09:09:31.000Z</time>
      </trkpt>
      <trkpt lat="36.633844" lon="-4.499503">
        <ele>35.597825</ele>
        <time>2024-10-19T09:09:41.000Z</time>
      </trkpt>
      <trkpt lat="36.634661" lon="-4.499118">
        <ele>33.928564</ele>
        <time>2024-10-19T09:09:51.000Z</time>
      </trkpt>
      <trkpt lat="36.635402" lon="-4.498826">
        <ele>32.778076</ele>
        <time>2024-10-19T09:10:00.000Z</time>
      </trkpt>
      <trkpt lat="36.636016" lon="-4.498489">
        <ele>31.964238</ele>
        <time>2024-10-19T09:10:07.000Z</time>
      </trkpt>
      <trkpt lat="36.6378" lon="-4.497251">
        <ele>29.14356</ele>
        <time>2024-10-19T09:10:30.000Z</time>
      </trkpt>
      <trkpt lat="36.638038" lon="-4.497108">
        <ele>28.753893</ele>
        <time>2024-10-19T09:10:33.000Z</time>
      </trkpt>
      <trkpt lat="36.639028" lon="-4.496642">
        <ele>27.045768</ele>
        <time>2024-10-19T09:10:45.000Z</time>
      </trkpt>
      <trkpt lat="36.639281" lon="-4.496484">
        <ele>26.569484</ele>
        <time>2024-10-19T09:10:48.000Z</time>
      </trkpt>
      <trkpt lat="36.639408" lon="-4.496336">
        <ele>26.276523</ele>
        <time>2024-10-19T09:10:50.000Z</time>
      </trkpt>
      <trkpt lat="36.639578" lon="-4.496172">
        <ele>25.938338</ele>
        <time>2024-10-19T09:10:52.000Z</time>
      </trkpt>
      <trkpt lat="36.639618" lon="-4.496106">
        <ele>25.833081</ele>
        <time>2024-10-19T09:10:53.000Z</time>
      </trkpt>
      <trkpt lat="36.639705" lon="-4.495957">
        <ele>25.550061</ele>
        <time>2024-10-19T09:10:55.000Z</time>
      </trkpt>
      <trkpt lat="36.639958" lon="-4.495907">
        <ele>24.964696</ele>
        <time>2024-10-19T09:10:58.000Z</time>
      </trkpt>
      <trkpt lat="36.64038" lon="-4.495665">
        <ele>23.884478</ele>
        <time>2024-10-19T09:11:03.000Z</time>
      </trkpt>
      <trkpt lat="36.6407" lon="-4.495337">
        <ele>22.88429</ele>
        <time>2024-10-19T09:11:08.000Z</time>
      </trkpt>
      <trkpt lat="36.642109" lon="-4.493401">
        <ele>17.304476</ele>
        <time>2024-10-19T09:11:31.000Z</time>
      </trkpt>
      <trkpt lat="36.642182" lon="-4.49316">
        <ele>16.755523</ele>
        <time>2024-10-19T09:11:33.000Z</time>
      </trkpt>
      <trkpt lat="36.642342" lon="-4.492927">
        <ele>16.192668</ele>
        <time>2024-10-19T09:11:36.000Z</time>
      </trkpt>
      <trkpt lat="36.642356" lon="-4.492908">
        <ele>16.17838</ele>
        <time>2024-10-19T09:11:36.000Z</time>
      </trkpt>
      <trkpt lat="36.642352" lon="-4.492909">
        <ele>16.176119</ele>
        <time>2024-10-19T09:11:36.000Z</time>
      </trkpt>
      <trkpt lat="36.642416" lon="-4.492822">
        <ele>16.012253</ele>
        <time>2024-10-19T09:11:37.000Z</time>
      </trkpt>
      <trkpt lat="36.642459" lon="-4.492603">
        <ele>15.699645</ele>
        <time>2024-10-19T09:11:39.000Z</time>
      </trkpt>
      <trkpt lat="36.642456" lon="-4.492498">
        <ele>15.55356</ele>
        <time>2024-10-19T09:11:40.000Z</time>
      </trkpt>
      <trkpt lat="36.642393" lon="-4.49236">
        <ele>15.315855</ele>
        <time>2024-10-19T09:11:41.000Z</time>
      </trkpt>
      <trkpt lat="36.642337" lon="-4.492324">
        <ele>15.2148</ele>
        <time>2024-10-19T09:11:42.000Z</time>
      </trkpt>
      <trkpt lat="36.642178" lon="-4.492166">
        <ele>14.85052</ele>
        <time>2024-10-19T09:11:44.000Z</time>
      </trkpt>
      <trkpt lat="36.642148" lon="-4.492105">
        <ele>14.755929</ele>
        <time>2024-10-19T09:11:45.000Z</time>
      </trkpt>
      <trkpt lat="36.642113" lon="-4.491944">
        <ele>14.523631</ele>
        <time>2024-10-19T09:11:46.000Z</time>
      </trkpt>
      <trkpt lat="36.64205" lon="-4.491588">
        <ele>14.014093</ele>
        <time>2024-10-19T09:11:49.000Z</time>
      </trkpt>
      <trkpt lat="36.642135" lon="-4.491597">
        <ele>13.871571</ele>
        <time>2024-10-19T09:11:50.000Z</time>
      </trkpt>
      <trkpt lat="36.642215" lon="-4.491632">
        <ele>13.729789</ele>
        <time>2024-10-19T09:11:51.000Z</time>
      </trkpt>
      <trkpt lat="36.642402" lon="-4.491245">
        <ele>13.074431</ele>
        <time>2024-10-19T09:11:55.000Z</time>
      </trkpt>
      <trkpt lat="36.642505" lon="-4.490969">
        <ele>12.682455</ele>
        <time>2024-10-19T09:11:58.000Z</time>
      </trkpt>
      <trkpt lat="36.642572" lon="-4.490804">
        <ele>12.43891</ele>
        <time>2024-10-19T09:12:00.000Z</time>
      </trkpt>
      <trkpt lat="36.642735" lon="-4.490148">
        <ele>11.531329</ele>
        <time>2024-10-19T09:12:06.000Z</time>
      </trkpt>
      <trkpt lat="36.643035" lon="-4.488725">
        <ele>9.613592</ele>
        <time>2024-10-19T09:12:19.000Z</time>
      </trkpt>
      <trkpt lat="36.64307" lon="-4.488566">
        <ele>9.393852</ele>
        <time>2024-10-19T09:12:20.000Z</time>
      </trkpt>
      <trkpt lat="36.643182" lon="-4.487979">
        <ele>8.60566</ele>
        <time>2024-10-19T09:12:25.000Z</time>
      </trkpt>
      <trkpt lat="36.643266" lon="-4.487678">
        <ele>8.183054</ele>
        <time>2024-10-19T09:12:28.000Z</time>
      </trkpt>
      <trkpt lat="36.643402" lon="-4.487153">
        <ele>7.463521</ele>
        <time>2024-10-19T09:12:33.000Z</time>
      </trkpt>
      <trkpt lat="36.643577" lon="-4.486649">
        <ele>7.091072</ele>
        <time>2024-10-19T09:12:38.000Z</time>
      </trkpt>
      <trkpt lat="36.643667" lon="-4.486462">
        <ele>6.958504</ele>
        <time>2024-10-19T09:12:40.000Z</time>
      </trkpt>
      <trkpt lat="36.643629" lon="-4.48636">
        <ele>6.892596</ele>
        <time>2024-10-19T09:12:41.000Z</time>
      </trkpt>
      <trkpt lat="36.643556" lon="-4.486314">
        <ele>6.833034</ele>
        <time>2024-10-19T09:12:42.000Z</time>
      </trkpt>
      <trkpt lat="36.643479" lon="-4.486298">
        <ele>6.777708</ele>
        <time>2024-10-19T09:12:43.000Z</time>
      </trkpt>
      <trkpt lat="36.641186" lon="-4.487715">
        <ele>5.356643</ele>
        <time>2024-10-19T09:13:11.000Z</time>
      </trkpt>
      <trkpt lat="36.641128" lon="-4.487749">
        <ele>5.327166</ele>
        <time>2024-10-19T09:13:12.000Z</time>
      </trkpt>
      <trkpt lat="36.641116" lon="-4.487758">
        <ele>5.323838</ele>
        <time>2024-10-19T09:13:12.000Z</time>
      </trkpt>
      <trkpt lat="36.64111" lon="-4.487759">
        <ele>5.323275</ele>
        <time>2024-10-19T09:13:12.000Z</time>
      </trkpt>
      <trkpt lat="36.640572" lon="-4.488108">
        <ele>5.199695</ele>
        <time>2024-10-19T09:13:19.000Z</time>
      </trkpt>
      <trkpt lat="36.640382" lon="-4.487682">
        <ele>5.155128</ele>
        <time>2024-10-19T09:13:23.000Z</time>
      </trkpt>
      <trkpt lat="36.640974" lon="-4.48732">
        <ele>5.076989</ele>
        <time>2024-10-19T09:13:30.000Z</time>
      </trkpt>
      <trkpt lat="36.642331" lon="-4.486503">
        <ele>5.268257</ele>
        <time>2024-10-19T09:13:47.000Z</time>
      </trkpt>
      <trkpt lat="36.642943" lon="-4.486116">
        <ele>5.443794</ele>
        <time>2024-10-19T09:13:55.000Z</time>
      </trkpt>
      <trkpt lat="36.643512" lon="-4.485777">
        <ele>5.933068</ele>
        <time>2024-10-19T09:14:02.000Z</time>
      </trkpt>
      <trkpt lat="36.643629" lon="-4.485702">
        <ele>6.034059</ele>
        <time>2024-10-19T09:14:03.000Z</time>
      </trkpt>
      <trkpt lat="36.64368" lon="-4.485672">
        <ele>6.076692</ele>
        <time>2024-10-19T09:14:04.000Z</time>
      </trkpt>
      <trkpt lat="36.643766" lon="-4.485687">
        <ele>6.143634</ele>
        <time>2024-10-19T09:14:05.000Z</time>
      </trkpt>
      <trkpt lat="36.643816" lon="-4.485717">
        <ele>6.194823</ele>
        <time>2024-10-19T09:14:06.000Z</time>
      </trkpt>
      <trkpt lat="36.643863" lon="-4.485776">
        <ele>6.241642</ele>
        <time>2024-10-19T09:14:07.000Z</time>
      </trkpt>
      <trkpt lat="36.643876" lon="-4.485779">
        <ele>6.247431</ele>
        <time>2024-10-19T09:14:07.000Z</time>
      </trkpt>
      <trkpt lat="36.6439" lon="-4.485935">
        <ele>6.341388</ele>
        <time>2024-10-19T09:14:08.000Z</time>
      </trkpt>
      <trkpt lat="36.643878" lon="-4.48604">
        <ele>6.409878</ele>
        <time>2024-10-19T09:14:09.000Z</time>
      </trkpt>
      <trkpt lat="36.643866" lon="-4.486052">
        <ele>6.423389</ele>
        <time>2024-10-19T09:14:09.000Z</time>
      </trkpt>
      <trkpt lat="36.643854" lon="-4.486134">
        <ele>6.479418</ele>
        <time>2024-10-19T09:14:10.000Z</time>
      </trkpt>
      <trkpt lat="36.643696" lon="-4.48644">
        <ele>6.69621</ele>
        <time>2024-10-19T09:14:13.000Z</time>
      </trkpt>
      <trkpt lat="36.643662" lon="-4.486452">
        <ele>6.728516</ele>
        <time>2024-10-19T09:14:13.000Z</time>
      </trkpt>
      <trkpt lat="36.643581" lon="-4.486658">
        <ele>6.961207</ele>
        <time>2024-10-19T09:14:15.000Z</time>
      </trkpt>
      <trkpt lat="36.643389" lon="-4.487141">
        <ele>7.612352</ele>
        <time>2024-10-19T09:14:20.000Z</time>
      </trkpt>
      <trkpt lat="36.643258" lon="-4.487674">
        <ele>8.275822</ele>
        <time>2024-10-19T09:14:25.000Z</time>
      </trkpt>
      <trkpt lat="36.643183" lon="-4.487976">
        <ele>8.665518</ele>
        <time>2024-10-19T09:14:28.000Z</time>
      </trkpt>
      <trkpt lat="36.643057" lon="-4.488565">
        <ele>9.392307</ele>
        <time>2024-10-19T09:14:33.000Z</time>
      </trkpt>
      <trkpt lat="36.64302" lon="-4.488721">
        <ele>9.612805</ele>
        <time>2024-10-19T09:14:34.000Z</time>
      </trkpt>
      <trkpt lat="36.642742" lon="-4.49015">
        <ele>11.602117</ele>
        <time>2024-10-19T09:14:47.000Z</time>
      </trkpt>
      <trkpt lat="36.642574" lon="-4.490803">
        <ele>12.533429</ele>
        <time>2024-10-19T09:14:53.000Z</time>
      </trkpt>
      <trkpt lat="36.642509" lon="-4.490965">
        <ele>12.716253</ele>
        <time>2024-10-19T09:14:55.000Z</time>
      </trkpt>
      <trkpt lat="36.642416" lon="-4.491229">
        <ele>13.010455</ele>
        <time>2024-10-19T09:14:58.000Z</time>
      </trkpt>
      <trkpt lat="36.642209" lon="-4.491629">
        <ele>13.479695</ele>
        <time>2024-10-19T09:15:02.000Z</time>
      </trkpt>
      <trkpt lat="36.642257" lon="-4.491732">
        <ele>13.593046</ele>
        <time>2024-10-19T09:15:03.000Z</time>
      </trkpt>
      <trkpt lat="36.642232" lon="-4.491855">
        <ele>13.705977</ele>
        <time>2024-10-19T09:15:04.000Z</time>
      </trkpt>
      <trkpt lat="36.642156" lon="-4.491934">
        <ele>13.819162</ele>
        <time>2024-10-19T09:15:05.000Z</time>
      </trkpt>
      <trkpt lat="36.642119" lon="-4.491953">
        <ele>13.876678</ele>
        <time>2024-10-19T09:15:05.000Z</time>
      </trkpt>
      <trkpt lat="36.642148" lon="-4.492107">
        <ele>14.039876</ele>
        <time>2024-10-19T09:15:06.000Z</time>
      </trkpt>
      <trkpt lat="36.642185" lon="-4.492163">
        <ele>14.106332</ele>
        <time>2024-10-19T09:15:07.000Z</time>
      </trkpt>
      <trkpt lat="36.642331" lon="-4.492322">
        <ele>14.362256</ele>
        <time>2024-10-19T09:15:09.000Z</time>
      </trkpt>
      <trkpt lat="36.642383" lon="-4.492367">
        <ele>14.433259</ele>
        <time>2024-10-19T09:15:10.000Z</time>
      </trkpt>
      <trkpt lat="36.642598" lon="-4.492414">
        <ele>14.698936</ele>
        <time>2024-10-19T09:15:12.000Z</time>
      </trkpt>
      <trkpt lat="36.642746" lon="-4.492336">
        <ele>14.893972</ele>
        <time>2024-10-19T09:15:14.000Z</time>
      </trkpt>
      <trkpt lat="36.642822" lon="-4.492257">
        <ele>15.010505</ele>
        <time>2024-10-19T09:15:15.000Z</time>
      </trkpt>
      <trkpt lat="36.642843" lon="-4.492238">
        <ele>15.028665</ele>
        <time>2024-10-19T09:15:15.000Z</time>
      </trkpt>
      <trkpt lat="36.642834" lon="-4.492232">
        <ele>15.036859</ele>
        <time>2024-10-19T09:15:15.000Z</time>
      </trkpt>
      <trkpt lat="36.642959" lon="-4.492098">
        <ele>15.225459</ele>
        <time>2024-10-19T09:15:17.000Z</time>
      </trkpt>
      <trkpt lat="36.643064" lon="-4.492072">
        <ele>15.346854</ele>
        <time>2024-10-19T09:15:18.000Z</time>
      </trkpt>
      <trkpt lat="36.643472" lon="-4.491553">
        <ele>16.046138</ele>
        <time>2024-10-19T09:15:24.000Z</time>
      </trkpt>
      <trkpt lat="36.643882" lon="-4.491035">
        <ele>16.738084</ele>
        <time>2024-10-19T09:15:30.000Z</time>
      </trkpt>
      <trkpt lat="36.644273" lon="-4.490562">
        <ele>17.205773</ele>
        <time>2024-10-19T09:15:36.000Z</time>
      </trkpt>
      <trkpt lat="36.644604" lon="-4.490233">
        <ele>17.539818</ele>
        <time>2024-10-19T09:15:41.000Z</time>
      </trkpt>
      <trkpt lat="36.644882" lon="-4.490057">
        <ele>17.797563</ele>
        <time>2024-10-19T09:15:44.000Z</time>
      </trkpt>
      <trkpt lat="36.645171" lon="-4.489917">
        <ele>18.034338</ele>
        <time>2024-10-19T09:15:47.000Z</time>
      </trkpt>
      <trkpt lat="36.645283" lon="-4.489847">
        <ele>18.141194</ele>
        <time>2024-10-19T09:15:48.000Z</time>
      </trkpt>
      <trkpt lat="36.64529" lon="-4.489851">
        <ele>18.141194</ele>
        <time>2024-10-19T09:15:48.000Z</time>
      </trkpt>
      <trkpt lat="36.645284" lon="-4.489843">
        <ele>18.141196</ele>
        <time>2024-10-19T09:15:48.000Z</time>
      </trkpt>
      <trkpt lat="36.645322" lon="-4.489946">
        <ele>18.215617</ele>
        <time>2024-10-19T09:15:49.000Z</time>
      </trkpt>
      <trkpt lat="36.645222" lon="-4.490002">
        <ele>18.280679</ele>
        <time>2024-10-19T09:15:50.000Z</time>
      </trkpt>
      <trkpt lat="36.644932" lon="-4.490162">
        <ele>18.008381</ele>
        <time>2024-10-19T09:15:54.000Z</time>
      </trkpt>
      <trkpt lat="36.644524" lon="-4.490489">
        <ele>17.605567</ele>
        <time>2024-10-19T09:15:59.000Z</time>
      </trkpt>
      <trkpt lat="36.643956" lon="-4.491127">
        <ele>16.946384</ele>
        <time>2024-10-19T09:16:08.000Z</time>
      </trkpt>
      <trkpt lat="36.643088" lon="-4.492257">
        <ele>16.708186</ele>
        <time>2024-10-19T09:16:22.000Z</time>
      </trkpt>
      <trkpt lat="36.642639" lon="-4.492858">
        <ele>16.672558</ele>
        <time>2024-10-19T09:16:29.000Z</time>
      </trkpt>
      <trkpt lat="36.642377" lon="-4.493251">
        <ele>17.278485</ele>
        <time>2024-10-19T09:16:34.000Z</time>
      </trkpt>
      <trkpt lat="36.642362" lon="-4.493258">
        <ele>17.293372</ele>
        <time>2024-10-19T09:16:34.000Z</time>
      </trkpt>
      <trkpt lat="36.642367" lon="-4.493257">
        <ele>17.294967</ele>
        <time>2024-10-19T09:16:34.000Z</time>
      </trkpt>
      <trkpt lat="36.641707" lon="-4.494191">
        <ele>19.249853</ele>
        <time>2024-10-19T09:16:45.000Z</time>
      </trkpt>
      <trkpt lat="36.641408" lon="-4.494621">
        <ele>20.169181</ele>
        <time>2024-10-19T09:16:50.000Z</time>
      </trkpt>
      <trkpt lat="36.641068" lon="-4.49507">
        <ele>21.594255</ele>
        <time>2024-10-19T09:16:56.000Z</time>
      </trkpt>
      <trkpt lat="36.641039" lon="-4.495112">
        <ele>21.720466</ele>
        <time>2024-10-19T09:16:56.000Z</time>
      </trkpt>
      <trkpt lat="36.640807" lon="-4.495387">
        <ele>22.638075</ele>
        <time>2024-10-19T09:17:00.000Z</time>
      </trkpt>
      <trkpt lat="36.640611" lon="-4.495614">
        <ele>23.428577</ele>
        <time>2024-10-19T09:17:03.000Z</time>
      </trkpt>
      <trkpt lat="36.639941" lon="-4.496171">
        <ele>25.705225</ele>
        <time>2024-10-19T09:17:12.000Z</time>
      </trkpt>
      <trkpt lat="36.639873" lon="-4.496228">
        <ele>25.902749</ele>
        <time>2024-10-19T09:17:13.000Z</time>
      </trkpt>
      <trkpt lat="36.639843" lon="-4.496257">
        <ele>25.964624</ele>
        <time>2024-10-19T09:17:13.000Z</time>
      </trkpt>
      <trkpt lat="36.639843" lon="-4.496249">
        <ele>25.969604</ele>
        <time>2024-10-19T09:17:13.000Z</time>
      </trkpt>
      <trkpt lat="36.639643" lon="-4.496385">
        <ele>26.490273</ele>
        <time>2024-10-19T09:17:16.000Z</time>
      </trkpt>
      <trkpt lat="36.639055" lon="-4.49676">
        <ele>28.031819</ele>
        <time>2024-10-19T09:17:23.000Z</time>
      </trkpt>
      <trkpt lat="36.638072" lon="-4.497229">
        <ele>30.272008</ele>
        <time>2024-10-19T09:17:35.000Z</time>
      </trkpt>
      <trkpt lat="36.636734" lon="-4.498138">
        <ele>33.046838</ele>
        <time>2024-10-19T09:17:52.000Z</time>
      </trkpt>
      <trkpt lat="36.636417" lon="-4.498363">
        <ele>33.649488</ele>
        <time>2024-10-19T09:17:56.000Z</time>
      </trkpt>
      <trkpt lat="36.636415" lon="-4.498375">
        <ele>33.65936</ele>
        <time>2024-10-19T09:17:56.000Z</time>
      </trkpt>
      <trkpt lat="36.636403" lon="-4.498386">
        <ele>33.688307</ele>
        <time>2024-10-19T09:17:56.000Z</time>
      </trkpt>
      <trkpt lat="36.636375" lon="-4.498415">
        <ele>33.762396</ele>
        <time>2024-10-19T09:17:56.000Z</time>
      </trkpt>
      <trkpt lat="36.63573" lon="-4.498784">
        <ele>34.925614</ele>
        <time>2024-10-19T09:18:04.000Z</time>
      </trkpt>
      <trkpt lat="36.635145" lon="-4.499061">
        <ele>35.965336</ele>
        <time>2024-10-19T09:18:11.000Z</time>
      </trkpt>
      <trkpt lat="36.634653" lon="-4.499263">
        <ele>36.589971</ele>
        <time>2024-10-19T09:18:17.000Z</time>
      </trkpt>
      <trkpt lat="36.634072" lon="-4.499503">
        <ele>37.354803</ele>
        <time>2024-10-19T09:18:24.000Z</time>
      </trkpt>
      <trkpt lat="36.633619" lon="-4.499736">
        <ele>37.949889</ele>
        <time>2024-10-19T09:18:29.000Z</time>
      </trkpt>
      <trkpt lat="36.633301" lon="-4.499978">
        <ele>38.540613</ele>
        <time>2024-10-19T09:18:33.000Z</time>
      </trkpt>
      <trkpt lat="36.63316" lon="-4.500114">
        <ele>38.885119</ele>
        <time>2024-10-19T09:18:35.000Z</time>
      </trkpt>
      <trkpt lat="36.633122" lon="-4.50023">
        <ele>39.059685</ele>
        <time>2024-10-19T09:18:36.000Z</time>
      </trkpt>
      <trkpt lat="36.633054" lon="-4.50027">
        <ele>39.189865</ele>
        <time>2024-10-19T09:18:37.000Z</time>
      </trkpt>
      <trkpt lat="36.633015" lon="-4.500264">
        <ele>39.283471</ele>
        <time>2024-10-19T09:18:37.000Z</time>
      </trkpt>
      <trkpt lat="36.631774" lon="-4.501332">
        <ele>42.720334</ele>
        <time>2024-10-19T09:18:54.000Z</time>
      </trkpt>
      <trkpt lat="36.63148" lon="-4.501583">
        <ele>44.062469</ele>
        <time>2024-10-19T09:18:58.000Z</time>
      </trkpt>
      <trkpt lat="36.630758" lon="-4.502273">
        <ele>47.542641</ele>
        <time>2024-10-19T09:19:08.000Z</time>
      </trkpt>
      <trkpt lat="36.630394" lon="-4.502691">
        <ele>49.157436</ele>
        <time>2024-10-19T09:19:14.000Z</time>
      </trkpt>
      <trkpt lat="36.630059" lon="-4.503166">
        <ele>50.669325</ele>
        <time>2024-10-19T09:19:20.000Z</time>
      </trkpt>
      <trkpt lat="36.63004" lon="-4.503169">
        <ele>50.726425</ele>
        <time>2024-10-19T09:19:20.000Z</time>
      </trkpt>
      <trkpt lat="36.629603" lon="-4.50378">
        <ele>52.62152</ele>
        <time>2024-10-19T09:19:27.000Z</time>
      </trkpt>
      <trkpt lat="36.629462" lon="-4.504007">
        <ele>53.326224</ele>
        <time>2024-10-19T09:19:30.000Z</time>
      </trkpt>
      <trkpt lat="36.629491" lon="-4.504117">
        <ele>53.536459</ele>
        <time>2024-10-19T09:19:31.000Z</time>
      </trkpt>
      <trkpt lat="36.629491" lon="-4.504203">
        <ele>53.604286</ele>
        <time>2024-10-19T09:19:32.000Z</time>
      </trkpt>
      <trkpt lat="36.629447" lon="-4.504314">
        <ele>53.67218</ele>
        <time>2024-10-19T09:19:33.000Z</time>
      </trkpt>
      <trkpt lat="36.62939" lon="-4.504391">
        <ele>53.740802</ele>
        <time>2024-10-19T09:19:34.000Z</time>
      </trkpt>
      <trkpt lat="36.629333" lon="-4.504441">
        <ele>53.808268</ele>
        <time>2024-10-19T09:19:35.000Z</time>
      </trkpt>
      <trkpt lat="36.629249" lon="-4.504453">
        <ele>53.876234</ele>
        <time>2024-10-19T09:19:36.000Z</time>
      </trkpt>
      <trkpt lat="36.62917" lon="-4.504431">
        <ele>53.943989</ele>
        <time>2024-10-19T09:19:37.000Z</time>
      </trkpt>
      <trkpt lat="36.62907" lon="-4.504501">
        <ele>54.043139</ele>
        <time>2024-10-19T09:19:38.000Z</time>
      </trkpt>
      <trkpt lat="36.628722" lon="-4.504829">
        <ele>54.399476</ele>
        <time>2024-10-19T09:19:43.000Z</time>
      </trkpt>
      <trkpt lat="36.628357" lon="-4.505173">
        <ele>54.784419</ele>
        <time>2024-10-19T09:19:48.000Z</time>
      </trkpt>
      <trkpt lat="36.62622" lon="-4.506944">
        <ele>57.692571</ele>
        <time>2024-10-19T09:20:17.000Z</time>
      </trkpt>
      <trkpt lat="36.62552" lon="-4.50743">
        <ele>59.433358</ele>
        <time>2024-10-19T09:20:26.000Z</time>
      </trkpt>
      <trkpt lat="36.624015" lon="-4.508285">
        <ele>63.743269</ele>
        <time>2024-10-19T09:20:44.000Z</time>
      </trkpt>
      <trkpt lat="36.623094" lon="-4.508616">
        <ele>65.978626</ele>
        <time>2024-10-19T09:20:55.000Z</time>
      </trkpt>
      <trkpt lat="36.621894" lon="-4.50886">
        <ele>67.494883</ele>
        <time>2024-10-19T09:21:09.000Z</time>
      </trkpt>
      <trkpt lat="36.621464" lon="-4.508863">
        <ele>67.916501</ele>
        <time>2024-10-19T09:21:14.000Z</time>
      </trkpt>
      <trkpt lat="36.621188" lon="-4.50887">
        <ele>68.002011</ele>
        <time>2024-10-19T09:21:17.000Z</time>
      </trkpt>
      <trkpt lat="36.621024" lon="-4.508901">
        <ele>68.057413</ele>
        <time>2024-10-19T09:21:19.000Z</time>
      </trkpt>
      <trkpt lat="36.620833" lon="-4.508906">
        <ele>68.114774</ele>
        <time>2024-10-19T09:21:21.000Z</time>
      </trkpt>
      <trkpt lat="36.620836" lon="-4.508903">
        <ele>68.116699</ele>
        <time>2024-10-19T09:21:21.000Z</time>
      </trkpt>
      <trkpt lat="36.620819" lon="-4.508909">
        <ele>68.118653</ele>
        <time>2024-10-19T09:21:21.000Z</time>
      </trkpt>
      <trkpt lat="36.620622" lon="-4.508927">
        <ele>68.183074</ele>
        <time>2024-10-19T09:21:23.000Z</time>
      </trkpt>
      <trkpt lat="36.620441" lon="-4.508924">
        <ele>68.243169</ele>
        <time>2024-10-19T09:21:25.000Z</time>
      </trkpt>
      <trkpt lat="36.620401" lon="-4.508922">
        <ele>68.253471</ele>
        <time>2024-10-19T09:21:25.000Z</time>
      </trkpt>
      <trkpt lat="36.617977" lon="-4.50903">
        <ele>68.692432</ele>
        <time>2024-10-19T09:21:52.000Z</time>
      </trkpt>
      <trkpt lat="36.617589" lon="-4.509077">
        <ele>68.381032</ele>
        <time>2024-10-19T09:21:56.000Z</time>
      </trkpt>
      <trkpt lat="36.617117" lon="-4.509152">
        <ele>68.003566</ele>
        <time>2024-10-19T09:22:01.000Z</time>
      </trkpt>
      <trkpt lat="36.616779" lon="-4.509254">
        <ele>67.740194</ele>
        <time>2024-10-19T09:22:05.000Z</time>
      </trkpt>
      <trkpt lat="36.616329" lon="-4.509439">
        <ele>67.356947</ele>
        <time>2024-10-19T09:22:10.000Z</time>
      </trkpt>
      <trkpt lat="36.615848" lon="-4.509713">
        <ele>66.79137</ele>
        <time>2024-10-19T09:22:16.000Z</time>
      </trkpt>
      <trkpt lat="36.615699" lon="-4.509869">
        <ele>66.575182</ele>
        <time>2024-10-19T09:22:18.000Z</time>
      </trkpt>
      <trkpt lat="36.615693" lon="-4.509902">
        <ele>66.559665</ele>
        <time>2024-10-19T09:22:18.000Z</time>
      </trkpt>
      <trkpt lat="36.615675" lon="-4.509961">
        <ele>66.486566</ele>
        <time>2024-10-19T09:22:19.000Z</time>
      </trkpt>
      <trkpt lat="36.615605" lon="-4.510009">
        <ele>66.406758</ele>
        <time>2024-10-19T09:22:20.000Z</time>
      </trkpt>
      <trkpt lat="36.61554" lon="-4.510002">
        <ele>66.334623</ele>
        <time>2024-10-19T09:22:21.000Z</time>
      </trkpt>
      <trkpt lat="36.615362" lon="-4.510028">
        <ele>66.140231</ele>
        <time>2024-10-19T09:22:23.000Z</time>
      </trkpt>
      <trkpt lat="36.615267" lon="-4.510064">
        <ele>66.014515</ele>
        <time>2024-10-19T09:22:24.000Z</time>
      </trkpt>
      <trkpt lat="36.61339" lon="-4.511248">
        <ele>63.996524</ele>
        <time>2024-10-19T09:22:47.000Z</time>
      </trkpt>
      <trkpt lat="36.612977" lon="-4.511522">
        <ele>63.602935</ele>
        <time>2024-10-19T09:22:52.000Z</time>
      </trkpt>
      <trkpt lat="36.612361" lon="-4.511913">
        <ele>63.13248</ele>
        <time>2024-10-19T09:23:00.000Z</time>
      </trkpt>
      <trkpt lat="36.610747" lon="-4.512929">
        <ele>61.489746</ele>
        <time>2024-10-19T09:23:20.000Z</time>
      </trkpt>
      <trkpt lat="36.610282" lon="-4.513222">
        <ele>60.888257</ele>
        <time>2024-10-19T09:23:26.000Z</time>
      </trkpt>
      <trkpt lat="36.609901" lon="-4.51355">
        <ele>60.326026</ele>
        <time>2024-10-19T09:23:31.000Z</time>
      </trkpt>
      <trkpt lat="36.609611" lon="-4.513851">
        <ele>59.122898</ele>
        <time>2024-10-19T09:23:35.000Z</time>
      </trkpt>
      <trkpt lat="36.609541" lon="-4.513865">
        <ele>58.862953</ele>
        <time>2024-10-19T09:23:36.000Z</time>
      </trkpt>
      <trkpt lat="36.609539" lon="-4.513888">
        <ele>58.810469</ele>
        <time>2024-10-19T09:23:36.000Z</time>
      </trkpt>
      <trkpt lat="36.609497" lon="-4.513934">
        <ele>58.627012</ele>
        <time>2024-10-19T09:23:37.000Z</time>
      </trkpt>
      <trkpt lat="36.609365" lon="-4.513983">
        <ele>58.191926</ele>
        <time>2024-10-19T09:23:39.000Z</time>
      </trkpt>
      <trkpt lat="36.609308" lon="-4.513982">
        <ele>57.970268</ele>
        <time>2024-10-19T09:23:40.000Z</time>
      </trkpt>
      <trkpt lat="36.609191" lon="-4.513894">
        <ele>57.534177</ele>
        <time>2024-10-19T09:23:42.000Z</time>
      </trkpt>
      <trkpt lat="36.609164" lon="-4.513856">
        <ele>57.402173</ele>
        <time>2024-10-19T09:23:42.000Z</time>
      </trkpt>
      <trkpt lat="36.60874" lon="-4.513951">
        <ele>55.959116</ele>
        <time>2024-10-19T09:23:47.000Z</time>
      </trkpt>
      <trkpt lat="36.608375" lon="-4.514006">
        <ele>54.708141</ele>
        <time>2024-10-19T09:23:51.000Z</time>
      </trkpt>
      <trkpt lat="36.607201" lon="-4.514001">
        <ele>48.917698</ele>
        <time>2024-10-19T09:24:04.000Z</time>
      </trkpt>
      <trkpt lat="36.606963" lon="-4.51401">
        <ele>47.683859</ele>
        <time>2024-10-19T09:24:07.000Z</time>
      </trkpt>
      <trkpt lat="36.606873" lon="-4.514083">
        <ele>47.138574</ele>
        <time>2024-10-19T09:24:08.000Z</time>
      </trkpt>
      <trkpt lat="36.606761" lon="-4.514042">
        <ele>46.564837</ele>
        <time>2024-10-19T09:24:09.000Z</time>
      </trkpt>
      <trkpt lat="36.606602" lon="-4.514022">
        <ele>45.750809</ele>
        <time>2024-10-19T09:24:11.000Z</time>
      </trkpt>
      <trkpt lat="36.606313" lon="-4.514025">
        <ele>44.196432</ele>
        <time>2024-10-19T09:24:14.000Z</time>
      </trkpt>
      <trkpt lat="36.605077" lon="-4.514357">
        <ele>37.59798</ele>
        <time>2024-10-19T09:24:28.000Z</time>
      </trkpt>
      <trkpt lat="36.604742" lon="-4.514419">
        <ele>35.873399</ele>
        <time>2024-10-19T09:24:32.000Z</time>
      </trkpt>
      <trkpt lat="36.604482" lon="-4.514418">
        <ele>35.52512</ele>
        <time>2024-10-19T09:24:35.000Z</time>
      </trkpt>
      <trkpt lat="36.604299" lon="-4.514383">
        <ele>35.363008</ele>
        <time>2024-10-19T09:24:37.000Z</time>
      </trkpt>
      <trkpt lat="36.603873" lon="-4.51425">
        <ele>34.95534</ele>
        <time>2024-10-19T09:24:42.000Z</time>
      </trkpt>
      <trkpt lat="36.603636" lon="-4.514106">
        <ele>34.702679</ele>
        <time>2024-10-19T09:24:45.000Z</time>
      </trkpt>
      <trkpt lat="36.603622" lon="-4.514105">
        <ele>34.702668</ele>
        <time>2024-10-19T09:24:45.000Z</time>
      </trkpt>
      <trkpt lat="36.603629" lon="-4.514104">
        <ele>34.702674</ele>
        <time>2024-10-19T09:24:45.000Z</time>
      </trkpt>
      <trkpt lat="36.603653" lon="-4.514017">
        <ele>34.62856</ele>
        <time>2024-10-19T09:24:46.000Z</time>
      </trkpt>
      <trkpt lat="36.603651" lon="-4.514002">
        <ele>34.627376</ele>
        <time>2024-10-19T09:24:46.000Z</time>
      </trkpt>
      <trkpt lat="36.60369" lon="-4.514035">
        <ele>34.591232</ele>
        <time>2024-10-19T09:24:47.000Z</time>
      </trkpt>
      <trkpt lat="36.604171" lon="-4.514248">
        <ele>34.109543</ele>
        <time>2024-10-19T09:24:53.000Z</time>
      </trkpt>
      <trkpt lat="36.604471" lon="-4.514307">
        <ele>35.361708</ele>
        <time>2024-10-19T09:24:56.000Z</time>
      </trkpt>
      <trkpt lat="36.604742" lon="-4.514312">
        <ele>36.590238</ele>
        <time>2024-10-19T09:24:59.000Z</time>
      </trkpt>
      <trkpt lat="36.605065" lon="-4.514274">
        <ele>38.005838</ele>
        <time>2024-10-19T09:25:03.000Z</time>
      </trkpt>
      <trkpt lat="36.606754" lon="-4.513848">
        <ele>46.459851</ele>
        <time>2024-10-19T09:25:22.000Z</time>
      </trkpt>
      <trkpt lat="36.606812" lon="-4.513775">
        <ele>46.895655</ele>
        <time>2024-10-19T09:25:23.000Z</time>
      </trkpt>
      <trkpt lat="36.606902" lon="-4.513785">
        <ele>47.308385</ele>
        <time>2024-10-19T09:25:24.000Z</time>
      </trkpt>
      <trkpt lat="36.60694" lon="-4.51383">
        <ele>47.617728</ele>
        <time>2024-10-19T09:25:25.000Z</time>
      </trkpt>
      <trkpt lat="36.60698" lon="-4.513875">
        <ele>47.88469</ele>
        <time>2024-10-19T09:25:26.000Z</time>
      </trkpt>
      <trkpt lat="36.608374" lon="-4.513889">
        <ele>54.248383</ele>
        <time>2024-10-19T09:25:42.000Z</time>
      </trkpt>
      <trkpt lat="36.608898" lon="-4.513777">
        <ele>56.248895</ele>
        <time>2024-10-19T09:25:48.000Z</time>
      </trkpt>
      <trkpt lat="36.609012" lon="-4.513712">
        <ele>56.724645</ele>
        <time>2024-10-19T09:25:49.000Z</time>
      </trkpt>
      <trkpt lat="36.609172" lon="-4.513576">
        <ele>57.468444</ele>
        <time>2024-10-19T09:25:51.000Z</time>
      </trkpt>
      <trkpt lat="36.609167" lon="-4.513556">
        <ele>57.521055</ele>
        <time>2024-10-19T09:25:51.000Z</time>
      </trkpt>
      <trkpt lat="36.609258" lon="-4.513457">
        <ele>57.966904</ele>
        <time>2024-10-19T09:25:52.000Z</time>
      </trkpt>
      <trkpt lat="36.609375" lon="-4.513432">
        <ele>58.413224</ele>
        <time>2024-10-19T09:25:53.000Z</time>
      </trkpt>
      <trkpt lat="36.60942" lon="-4.51344">
        <ele>58.560861</ele>
        <time>2024-10-19T09:25:54.000Z</time>
      </trkpt>
      <trkpt lat="36.609806" lon="-4.513352">
        <ele>59.247601</ele>
        <time>2024-10-19T09:25:58.000Z</time>
      </trkpt>
      <trkpt lat="36.610203" lon="-4.513135">
        <ele>60.060263</ele>
        <time>2024-10-19T09:26:03.000Z</time>
      </trkpt>
      <trkpt lat="36.612132" lon="-4.511947">
        <ele>62.765972</ele>
        <time>2024-10-19T09:26:27.000Z</time>
      </trkpt>
      <trkpt lat="36.61235" lon="-4.511816">
        <ele>62.9725</ele>
        <time>2024-10-19T09:26:30.000Z</time>
      </trkpt>
      <trkpt lat="36.613509" lon="-4.511075">
        <ele>63.962147</ele>
        <time>2024-10-19T09:26:44.000Z</time>
      </trkpt>
      <trkpt lat="36.615224" lon="-4.509988">
        <ele>65.88292</ele>
        <time>2024-10-19T09:27:05.000Z</time>
      </trkpt>
      <trkpt lat="36.615478" lon="-4.509779">
        <ele>66.234618</ele>
        <time>2024-10-19T09:27:08.000Z</time>
      </trkpt>
      <trkpt lat="36.615484" lon="-4.509758">
        <ele>66.265715</ele>
        <time>2024-10-19T09:27:08.000Z</time>
      </trkpt>
      <trkpt lat="36.615574" lon="-4.50971">
        <ele>66.378445</ele>
        <time>2024-10-19T09:27:09.000Z</time>
      </trkpt>
      <trkpt lat="36.615625" lon="-4.509716">
        <ele>66.45646</ele>
        <time>2024-10-19T09:27:10.000Z</time>
      </trkpt>
      <trkpt lat="36.615643" lon="-4.509711">
        <ele>66.466192</ele>
        <time>2024-10-19T09:27:10.000Z</time>
      </trkpt>
      <trkpt lat="36.615894" lon="-4.509563">
        <ele>66.793632</ele>
        <time>2024-10-19T09:27:13.000Z</time>
      </trkpt>
      <trkpt lat="36.616527" lon="-4.509245">
        <ele>67.373207</ele>
        <time>2024-10-19T09:27:21.000Z</time>
      </trkpt>
      <trkpt lat="36.61736" lon="-4.508995">
        <ele>68.102374</ele>
        <time>2024-10-19T09:27:31.000Z</time>
      </trkpt>
      <trkpt lat="36.618289" lon="-4.508899">
        <ele>68.139964</ele>
        <time>2024-10-19T09:27:41.000Z</time>
      </trkpt>
      <trkpt lat="36.619711" lon="-4.508844">
        <ele>67.893462</ele>
        <time>2024-10-19T09:27:57.000Z</time>
      </trkpt>
      <trkpt lat="36.620405" lon="-4.508826">
        <ele>67.862216</ele>
        <time>2024-10-19T09:28:05.000Z</time>
      </trkpt>
      <trkpt lat="36.620617" lon="-4.508814">
        <ele>67.852482</ele>
        <time>2024-10-19T09:28:07.000Z</time>
      </trkpt>
      <trkpt lat="36.621014" lon="-4.508796">
        <ele>67.8348</ele>
        <time>2024-10-19T09:28:11.000Z</time>
      </trkpt>
      <trkpt lat="36.62119" lon="-4.508792">
        <ele>67.817073</ele>
        <time>2024-10-19T09:28:13.000Z</time>
      </trkpt>
      <trkpt lat="36.621892" lon="-4.50875">
        <ele>67.290561</ele>
        <time>2024-10-19T09:28:21.000Z</time>
      </trkpt>
      <trkpt lat="36.622612" lon="-4.508651">
        <ele>66.765259</ele>
        <time>2024-10-19T09:28:29.000Z</time>
      </trkpt>
      <trkpt lat="36.623266" lon="-4.508465">
        <ele>65.679709</ele>
        <time>2024-10-19T09:28:36.000Z</time>
      </trkpt>
      <trkpt lat="36.623434" lon="-4.508403">
        <ele>65.201001</ele>
        <time>2024-10-19T09:28:38.000Z</time>
      </trkpt>
      <trkpt lat="36.624007" lon="-4.508209">
        <ele>63.649843</ele>
        <time>2024-10-19T09:28:45.000Z</time>
      </trkpt>
      <trkpt lat="36.625466" lon="-4.507358">
        <ele>59.436159</ele>
        <time>2024-10-19T09:29:03.000Z</time>
      </trkpt>
      <trkpt lat="36.626172" lon="-4.506856">
        <ele>57.394835</ele>
        <time>2024-10-19T09:29:12.000Z</time>
      </trkpt>
      <trkpt lat="36.628198" lon="-4.505145">
        <ele>54.738744</ele>
        <time>2024-10-19T09:29:39.000Z</time>
      </trkpt>
      <trkpt lat="36.628266" lon="-4.50509">
        <ele>54.675506</ele>
        <time>2024-10-19T09:29:40.000Z</time>
      </trkpt>
      <trkpt lat="36.628628" lon="-4.504747">
        <ele>54.326347</ele>
        <time>2024-10-19T09:29:45.000Z</time>
      </trkpt>
      <trkpt lat="36.6289" lon="-4.50448">
        <ele>54.053697</ele>
        <time>2024-10-19T09:29:49.000Z</time>
      </trkpt>
      <trkpt lat="36.628991" lon="-4.504364">
        <ele>53.959037</ele>
        <time>2024-10-19T09:29:50.000Z</time>
      </trkpt>
      <trkpt lat="36.629027" lon="-4.504262">
        <ele>53.883253</ele>
        <time>2024-10-19T09:29:51.000Z</time>
      </trkpt>
      <trkpt lat="36.629009" lon="-4.504124">
        <ele>53.801483</ele>
        <time>2024-10-19T09:29:52.000Z</time>
      </trkpt>
      <trkpt lat="36.629028" lon="-4.504042">
        <ele>53.679104</ele>
        <time>2024-10-19T09:29:53.000Z</time>
      </trkpt>
      <trkpt lat="36.629112" lon="-4.503899">
        <ele>53.319126</ele>
        <time>2024-10-19T09:29:55.000Z</time>
      </trkpt>
      <trkpt lat="36.629175" lon="-4.503867">
        <ele>53.111489</ele>
        <time>2024-10-19T09:29:56.000Z</time>
      </trkpt>
      <trkpt lat="36.629335" lon="-4.503864">
        <ele>52.706568</ele>
        <time>2024-10-19T09:29:58.000Z</time>
      </trkpt>
      <trkpt lat="36.629543" lon="-4.503703">
        <ele>52.069624</ele>
        <time>2024-10-19T09:30:01.000Z</time>
      </trkpt>
      <trkpt lat="36.629926" lon="-4.503121">
        <ele>50.514871</ele>
        <time>2024-10-19T09:30:08.000Z</time>
      </trkpt>
      <trkpt lat="36.630338" lon="-4.502588">
        <ele>48.886667</ele>
        <time>2024-10-19T09:30:15.000Z</time>
      </trkpt>
      <trkpt lat="36.63069" lon="-4.502209">
        <ele>47.034449</ele>
        <time>2024-10-19T09:30:20.000Z</time>
      </trkpt>
      <trkpt lat="36.631439" lon="-4.501509">
        <ele>43.333738</ele>
        <time>2024-10-19T09:30:30.000Z</time>
      </trkpt>
      <trkpt lat="36.631721" lon="-4.50125">
        <ele>41.954148</ele>
        <time>2024-10-19T09:30:34.000Z</time>
      </trkpt>
      <trkpt lat="36.632783" lon="-4.500278">
        <ele>38.424442</ele>
        <time>2024-10-19T09:30:49.000Z</time>
      </trkpt>
      <trkpt lat="36.632875" lon="-4.500161">
        <ele>38.076072</ele>
        <time>2024-10-19T09:30:50.000Z</time>
      </trkpt>
      <trkpt lat="36.632935" lon="-4.500124">
        <ele>37.885013</ele>
        <time>2024-10-19T09:30:51.000Z</time>
      </trkpt>
      <trkpt lat="36.632978" lon="-4.500037">
        <ele>37.650434</ele>
        <time>2024-10-19T09:30:52.000Z</time>
      </trkpt>
      <trkpt lat="36.633022" lon="-4.500003">
        <ele>37.550397</ele>
        <time>2024-10-19T09:30:53.000Z</time>
      </trkpt>
      <trkpt lat="36.633085" lon="-4.500022">
        <ele>37.349473</ele>
        <time>2024-10-19T09:30:54.000Z</time>
      </trkpt>
      <trkpt lat="36.633845" lon="-4.49949">
        <ele>35.599449</ele>
        <time>2024-10-19T09:31:04.000Z</time>
      </trkpt>
      <trkpt lat="36.634663" lon="-4.499131">
        <ele>33.881973</ele>
        <time>2024-10-19T09:31:14.000Z</time>
      </trkpt>
      <trkpt lat="36.63542" lon="-4.498833">
        <ele>32.804007</ele>
        <time>2024-10-19T09:31:23.000Z</time>
      </trkpt>
      <trkpt lat="36.636023" lon="-4.498497">
        <ele>31.980007</ele>
        <time>2024-10-19T09:31:30.000Z</time>
      </trkpt>
      <trkpt lat="36.637794" lon="-4.497267">
        <ele>29.150353</ele>
        <time>2024-10-19T09:31:53.000Z</time>
      </trkpt>
      <trkpt lat="36.638046" lon="-4.497111">
        <ele>28.759653</ele>
        <time>2024-10-19T09:31:56.000Z</time>
      </trkpt>
      <trkpt lat="36.639031" lon="-4.496648">
        <ele>27.049427</ele>
        <time>2024-10-19T09:32:08.000Z</time>
      </trkpt>
      <trkpt lat="36.639285" lon="-4.496495">
        <ele>26.578012</ele>
        <time>2024-10-19T09:32:11.000Z</time>
      </trkpt>
      <trkpt lat="36.639417" lon="-4.49634">
        <ele>26.28803</ele>
        <time>2024-10-19T09:32:13.000Z</time>
      </trkpt>
      <trkpt lat="36.639578" lon="-4.496178">
        <ele>25.953311</ele>
        <time>2024-10-19T09:32:15.000Z</time>
      </trkpt>
      <trkpt lat="36.639608" lon="-4.496107">
        <ele>25.840159</ele>
        <time>2024-10-19T09:32:16.000Z</time>
      </trkpt>
      <trkpt lat="36.639718" lon="-4.495962">
        <ele>25.489009</ele>
        <time>2024-10-19T09:32:18.000Z</time>
      </trkpt>
      <trkpt lat="36.63996" lon="-4.495912">
        <ele>24.923234</ele>
        <time>2024-10-19T09:32:21.000Z</time>
      </trkpt>
      <trkpt lat="36.640371" lon="-4.495672">
        <ele>23.879162</ele>
        <time>2024-10-19T09:32:26.000Z</time>
      </trkpt>
      <trkpt lat="36.640694" lon="-4.495324">
        <ele>22.912461</ele>
        <time>2024-10-19T09:32:31.000Z</time>
      </trkpt>
      <trkpt lat="36.642112" lon="-4.493384">
        <ele>17.255998</ele>
        <time>2024-10-19T09:32:54.000Z</time>
      </trkpt>
      <trkpt lat="36.642185" lon="-4.493169">
        <ele>16.706795</ele>
        <time>2024-10-19T09:32:56.000Z</time>
      </trkpt>
      <trkpt lat="36.642344" lon="-4.492924">
        <ele>16.253483</ele>
        <time>2024-10-19T09:32:59.000Z</time>
      </trkpt>
      <trkpt lat="36.642339" lon="-4.492913">
        <ele>16.238696</ele>
        <time>2024-10-19T09:32:59.000Z</time>
      </trkpt>
      <trkpt lat="36.642339" lon="-4.492906">
        <ele>16.236383</ele>
        <time>2024-10-19T09:32:59.000Z</time>
      </trkpt>
      <trkpt lat="36.642399" lon="-4.492812">
        <ele>16.067095</ele>
        <time>2024-10-19T09:33:00.000Z</time>
      </trkpt>
      <trkpt lat="36.64246" lon="-4.492605">
        <ele>15.744194</ele>
        <time>2024-10-19T09:33:02.000Z</time>
      </trkpt>
      <trkpt lat="36.642459" lon="-4.49251">
        <ele>15.593266</ele>
        <time>2024-10-19T09:33:03.000Z</time>
      </trkpt>
      <trkpt lat="36.642385" lon="-4.492367">
        <ele>15.347723</ele>
        <time>2024-10-19T09:33:05.000Z</time>
      </trkpt>
      <trkpt lat="36.642348" lon="-4.492318">
        <ele>15.243323</ele>
        <time>2024-10-19T09:33:06.000Z</time>
      </trkpt>
      <trkpt lat="36.642178" lon="-4.49216">
        <ele>14.867036</ele>
        <time>2024-10-19T09:33:08.000Z</time>
      </trkpt>
      <trkpt lat="36.64214" lon="-4.492115">
        <ele>14.769311</ele>
        <time>2024-10-19T09:33:09.000Z</time>
      </trkpt>
      <trkpt lat="36.642122" lon="-4.491953">
        <ele>14.529366</ele>
        <time>2024-10-19T09:33:10.000Z</time>
      </trkpt>
      <trkpt lat="36.642051" lon="-4.491601">
        <ele>14.003022</ele>
        <time>2024-10-19T09:33:13.000Z</time>
      </trkpt>
      <trkpt lat="36.642136" lon="-4.491592">
        <ele>13.855798</ele>
        <time>2024-10-19T09:33:14.000Z</time>
      </trkpt>
      <trkpt lat="36.642207" lon="-4.491644">
        <ele>13.709328</ele>
        <time>2024-10-19T09:33:15.000Z</time>
      </trkpt>
      <trkpt lat="36.642411" lon="-4.491237">
        <ele>13.064141</ele>
        <time>2024-10-19T09:33:19.000Z</time>
      </trkpt>
      <trkpt lat="36.642508" lon="-4.490967">
        <ele>12.676034</ele>
        <time>2024-10-19T09:33:22.000Z</time>
      </trkpt>
      <trkpt lat="36.642567" lon="-4.490809">
        <ele>12.434867</ele>
        <time>2024-10-19T09:33:24.000Z</time>
      </trkpt>
      <trkpt lat="36.642737" lon="-4.49015">
        <ele>11.536193</ele>
        <time>2024-10-19T09:33:30.000Z</time>
      </trkpt>
      <trkpt lat="36.643028" lon="-4.488739">
        <ele>9.61196</ele>
        <time>2024-10-19T09:33:43.000Z</time>
      </trkpt>
      <trkpt lat="36.643067" lon="-4.488561">
        <ele>9.387581</ele>
        <time>2024-10-19T09:33:45.000Z</time>
      </trkpt>
      <trkpt lat="36.643192" lon="-4.487976">
        <ele>8.582743</ele>
        <time>2024-10-19T09:33:50.000Z</time>
      </trkpt>
      <trkpt lat="36.643259" lon="-4.487676">
        <ele>8.151202</ele>
        <time>2024-10-19T09:33:53.000Z</time>
      </trkpt>
      <trkpt lat="36.6434" lon="-4.487154">
        <ele>7.478109</ele>
        <time>2024-10-19T09:33:58.000Z</time>
      </trkpt>
      <trkpt lat="36.643578" lon="-4.48665">
        <ele>7.120497</ele>
        <time>2024-10-19T09:34:03.000Z</time>
      </trkpt>
      <trkpt lat="36.643664" lon="-4.486462">
        <ele>6.974257</ele>
        <time>2024-10-19T09:34:05.000Z</time>
      </trkpt>
      <trkpt lat="36.643631" lon="-4.48635">
        <ele>6.901571</ele>
        <time>2024-10-19T09:34:06.000Z</time>
      </trkpt>
      <trkpt lat="36.643553" lon="-4.486299">
        <ele>6.835874</ele>
        <time>2024-10-19T09:34:07.000Z</time>
      </trkpt>
      <trkpt lat="36.643484" lon="-4.486299">
        <ele>6.774862</ele>
        <time>2024-10-19T09:34:08.000Z</time>
      </trkpt>
      <trkpt lat="36.641192" lon="-4.487715">
        <ele>5.127288</ele>
        <time>2024-10-19T09:34:36.000Z</time>
      </trkpt>
      <trkpt lat="36.641131" lon="-4.487759">
        <ele>5.089719</ele>
        <time>2024-10-19T09:34:37.000Z</time>
      </trkpt>
      <trkpt lat="36.64112" lon="-4.48776">
        <ele>5.085478</ele>
        <time>2024-10-19T09:34:37.000Z</time>
      </trkpt>
      <trkpt lat="36.64111" lon="-4.487748">
        <ele>5.084778</ele>
        <time>2024-10-19T09:34:37.000Z</time>
      </trkpt>
      <trkpt lat="36.640571" lon="-4.488106">
        <ele>4.55717</ele>
        <time>2024-10-19T09:34:44.000Z</time>
      </trkpt>
      <trkpt lat="36.640382" lon="-4.487687">
        <ele>4.229054</ele>
        <time>2024-10-19T09:34:48.000Z</time>
      </trkpt>
      <trkpt lat="36.640147" lon="-4.487123">
        <ele>3.785918</ele>
        <time>2024-10-19T09:34:54.000Z</time>
      </trkpt>
      <trkpt lat="36.639944" lon="-4.486664">
        <ele>3.46144533551</ele>
        <time>2024-10-19T09:34:59.000Z</time>
      </trkpt>
      <trkpt lat="36.639738" lon="-4.486162">
        <ele>3.11237241329</ele>
        <time>2024-10-19T09:35:04.000Z</time>
      </trkpt>
      <trkpt lat="36.639534" lon="-4.485703">
        <ele>2.78752528476</ele>
        <time>2024-10-19T09:35:09.000Z</time>
      </trkpt>
      <trkpt lat="36.639428" lon="-4.485445">
        <ele>2.60807579878</ele>
        <time>2024-10-19T09:35:12.000Z</time>
      </trkpt>
      <trkpt lat="36.639335" lon="-4.485244">
        <ele>2.46443004698</ele>
        <time>2024-10-19T09:35:14.000Z</time>
      </trkpt>
      <trkpt lat="36.63882" lon="-4.484078">
        <ele>1.64041640954</ele>
        <time>2024-10-19T09:35:26.000Z</time>
      </trkpt>
    </trkseg>
  </trk>
</gpx>

<!--
Performance optimized by W3 Total Cache. Learn more: https://www.boldgrid.com/w3-total-cache/?utm_source=w3tc&utm_medium=footer_comment&utm_campaign=free_plugin

Page Caching using Disk: Enhanced{w3tc_pagecache_reject_reason} 

Served from: www.aquabike.world @ 2026-05-09 22:45:06 by W3 Total Cache
-->